M I D A S
Marine Information and Data Acquisition System
Tripno 806 of the Zeeleeuw from 2004-11-18 10:02:50 to 2004-11-18 14:23:46
Back to CruiseResearch ActivitiesStationsMapUnderway DataData graphs

EquipmentUnitsComment
TimeDGPSUTC
LatitudeDGPSDM.mWGS84
LongitudeDGPSDM.mWGS84
TemperatureSBE03/SBE38deg celciusITS90
ConductivitySBE21S/mITS90
SalinitySBE21 Practical Salinity Units
ChlorophylAChelsea fluorimeterg/lCalibrated in Aceton
Missing or incorrect values are displayed as -999
Sea surface data collected by the RV Zeeleeuw from 2004-11-18 10:02:50 to 2004-11-18 14:23:46
                                                                                    Next 1000 lines
Time Latitude Longitude Temperature Conductivity Salinity ChlorophylA
2004-11-18 10:03:03 51°22.589 3°13.154 10.258981 3.632231 32.807167 3.904358
2004-11-18 10:03:06 51°22.589 3°13.152 10.255298 3.630545 32.789503 3.870648
2004-11-18 10:03:13 51°22.59 3°13.15 10.255651 3.631809 32.800013 3.870648
2004-11-18 10:03:15 51°22.59 3°13.149 10.256156 3.629702 32.779577 3.870648
2004-11-18 10:03:40 51°22.591 3°13.143 10.255197 3.630334 32.787386 3.938067
2004-11-18 10:03:46 51°22.591 3°13.14 10.254188 3.628437 32.768338 3.904358
2004-11-18 10:03:50 51°22.591 3°13.14 10.254188 3.628437 32.768338 3.904358
2004-11-18 10:03:56 51°22.591 3°13.137 10.256005 3.63202 32.80432 4.005486
2004-11-18 10:04:00 51°22.591 3°13.136 10.258931 3.629386 32.779321 3.938067
2004-11-18 10:04:06 51°22.591 3°13.133 10.258023 3.631493 32.799758 3.938067
2004-11-18 10:04:11 51°22.591 3°13.131 10.262765 3.629807 32.781365 3.938067
2004-11-18 10:04:16 51°22.591 3°13.13 10.254491 3.625066 32.734477 4.005486
2004-11-18 10:04:20 51°22.592 3°13.127 10.254491 3.625066 32.734477 4.005486
2004-11-18 10:04:26 51°22.591 3°13.125 10.250908 3.629175 32.775745 3.971777
2004-11-18 10:04:31 51°22.592 3°13.122 10.257619 3.624539 32.72773 3.938067
2004-11-18 10:04:36 51°22.592 3°13.119 10.2555 3.630334 32.783738 3.938067
2004-11-18 10:04:41 51°22.592 3°13.118 10.252574 3.627594 32.758414 4.039195
2004-11-18 10:04:46 51°22.592 3°13.116 10.252523 3.6277 32.762389 3.971777
2004-11-18 10:04:51 51°22.592 3°13.113 10.252523 3.6277 32.762389 3.971777
2004-11-18 10:04:56 51°22.592 3°13.11 10.257821 3.628121 32.765892 4.005486
2004-11-18 10:05:00 51°22.592 3°13.108 10.254592 3.628859 32.771841 3.971777
2004-11-18 10:05:06 51°22.591 3°13.106 10.2555 3.628016 32.765563 4.005486
2004-11-18 10:05:10 51°22.592 3°13.104 10.257115 3.625909 32.744399 4.005486
2004-11-18 10:05:16 51°22.591 3°13.102 10.256358 3.627278 32.758156 3.971777
2004-11-18 10:05:20 51°22.592 3°13.099 10.256358 3.627278 32.758156 3.971777
2004-11-18 10:05:26 51°22.591 3°13.098 10.259587 3.628859 32.77257 4.039195
2004-11-18 10:05:30 51°22.591 3°13.095 10.2611 3.628332 32.76655 4.106614
2004-11-18 10:05:36 51°22.591 3°13.092 10.266297 3.628121 32.764434 4.005486
2004-11-18 10:05:42 51°22.59 3°13.091 10.265489 3.627278 32.756697 4.005486
2004-11-18 10:05:46 51°22.59 3°13.089 10.263673 3.627173 32.75491 4.039195
2004-11-18 10:05:51 51°22.59 3°13.087 10.263673 3.627173 32.75491 4.039195
2004-11-18 10:05:56 51°22.59 3°13.084 10.266801 3.626119 32.742143 4.005486
2004-11-18 10:06:01 51°22.59 3°13.082 10.26327 3.626119 32.740685 4.072905
2004-11-18 10:06:12 51°22.59 3°13.078 10.28158 3.626225 32.739558 3.938067
2004-11-18 10:06:16 51°22.589 3°13.076 10.291314 3.625382 32.730366 3.938067
2004-11-18 10:06:22 51°22.589 3°13.074 10.291515 3.62791 32.753569 3.971777
2004-11-18 10:06:26 51°22.589 3°13.072 10.291515 3.62791 32.753569 3.971777
2004-11-18 10:06:31 51°22.589 3°13.07 10.306995 3.624222 32.712179 4.612255
2004-11-18 10:06:37 51°22.589 3°13.067 10.298373 3.626224 32.727177 4.544836
2004-11-18 10:06:42 51°22.589 3°13.066 10.292221 3.626119 32.718114 4.409999
2004-11-18 10:06:44 51°22.589 3°13.064 10.285262 3.628542 32.736608 4.207742
2004-11-18 10:06:56 51°22.589 3°13.06 10.278453 3.623274 32.677944 4.241452
2004-11-18 10:07:00 51°22.589 3°13.059 10.279966 3.625908 32.701456 4.207742
2004-11-18 10:07:05 51°22.589 3°13.057 10.269576 3.626224 32.707534 4.106614
2004-11-18 10:07:10 51°22.589 3°13.055 10.269979 3.627278 32.720285 4.140324
2004-11-18 10:07:16 51°22.59 3°13.053 10.269576 3.625592 32.707737 4.241452
2004-11-18 10:07:21 51°22.591 3°13.051 10.269576 3.625592 32.707737 4.241452
2004-11-18 10:07:26 51°22.591 3°13.049 10.274166 3.620956 32.66559 4.140324
2004-11-18 10:07:30 51°22.592 3°13.047 10.272854 3.626857 32.728426 4.207742
2004-11-18 10:07:36 51°22.593 3°13.046 10.273006 3.619902 32.66083 4.207742
2004-11-18 10:07:40 51°22.594 3°13.044 10.262412 3.620113 32.665124 4.174033
2004-11-18 10:07:46 51°22.595 3°13.043 10.262563 3.621061 32.675366 4.174033
2004-11-18 10:07:50 51°22.596 3°13.041 10.262563 3.621061 32.675366 4.174033
2004-11-18 10:07:56 51°22.598 3°13.04 10.259082 3.624749 32.71019 4.174033
2004-11-18 10:08:00 51°22.599 3°13.04 10.25999 3.623379 32.696445 4.174033
2004-11-18 10:08:06 51°22.602 3°13.039 10.259335 3.622642 32.692679 4.207742
2004-11-18 10:08:11 51°22.604 3°13.037 10.2611 3.621694 32.684617 4.275161
2004-11-18 10:08:16 51°22.605 3°13.037 10.266145 3.623696 32.708347 4.241452
2004-11-18 10:08:21 51°22.607 3°13.036 10.266145 3.623696 32.708347 4.241452
2004-11-18 10:08:26 51°22.608 3°13.035 10.269475 3.623274 32.704844 4.241452
2004-11-18 10:08:30 51°22.609 3°13.036 10.270736 3.623169 32.703786 4.207742
2004-11-18 10:08:34 51°22.611 3°13.034 10.267608 3.621694 32.691163 4.174033
2004-11-18 10:08:41 51°22.612 3°13.033 10.263371 3.62201 32.693608 4.308871
2004-11-18 10:08:46 51°22.613 3°13.034 10.26786 3.621061 32.681908 4.241452
2004-11-18 10:08:50 51°22.614 3°13.033 10.26786 3.621061 32.681908 4.241452
2004-11-18 10:08:54 51°22.615 3°13.032 10.262563 3.624749 32.715283 4.275161
2004-11-18 10:09:01 51°22.617 3°13.03 10.261201 3.62359 32.702924 4.207742
2004-11-18 10:09:06 51°22.617 3°13.031 10.255853 3.623169 32.700149 4.174033
2004-11-18 10:09:10 51°22.618 3°13.029 10.25767 3.623274 32.701206 4.308871
2004-11-18 10:09:15 51°22.619 3°13.029 10.260243 3.624328 32.711781 4.241452
2004-11-18 10:09:21 51°22.619 3°13.028 10.260243 3.624328 32.711781 4.241452
2004-11-18 10:09:23 51°22.62 3°13.027 10.262563 3.621588 32.686469 4.207742
2004-11-18 10:09:30 51°22.62 3°13.026 10.2611 3.622115 32.693211 4.241452
2004-11-18 10:09:36 51°22.622 3°13.025 10.257468 3.619586 32.668558 4.241452
2004-11-18 10:09:41 51°22.622 3°13.024 10.256358 3.623063 32.703456 4.207742
2004-11-18 10:09:46 51°22.623 3°13.022 10.256005 3.622431 32.697111 4.207742
2004-11-18 10:09:49 51°22.623 3°13.022 10.256005 3.622431 32.697111 4.207742
2004-11-18 10:10:04 51°22.626 3°13.017 10.258275 3.615056 32.62527 4.207742
2004-11-18 10:10:08 51°22.626 3°13.016 10.258275 3.615056 32.62527 4.207742
2004-11-18 10:10:14 51°22.627 3°13.014 10.2611 3.620535 32.679529 4.241452
2004-11-18 10:10:18 51°22.627 3°13.013 10.257367 3.619797 32.672854 4.174033
2004-11-18 10:10:24 51°22.627 3°13.011 10.253936 3.621167 32.685875 4.174033
2004-11-18 10:10:28 51°22.628 3°13.01 10.25777 3.621694 32.69189 4.241452
2004-11-18 10:10:34 51°22.628 3°13.008 10.259486 3.619165 32.665055 4.174033
2004-11-18 10:10:38 51°22.628 3°13.007 10.259486 3.619165 32.665055 4.174033
2004-11-18 10:10:44 51°22.629 3°13.005 10.258931 3.621799 32.692948 4.207742
2004-11-18 10:10:48 51°22.629 3°13.004 10.259486 3.619481 32.669681 4.308871
2004-11-18 10:10:54 51°22.629 3°13.002 10.2611 3.620956 32.686669 4.106614
2004-11-18 10:10:58 51°22.629 3°13.002 10.254693 3.618111 32.656661 4.106614
2004-11-18 10:11:03 51°22.63 3°13 10.257165 3.61906 32.666178 4.039195
2004-11-18 10:11:09 51°22.63 3°12.998 10.257165 3.61906 32.666178 4.039195
2004-11-18 10:11:14 51°22.63 3°12.997 10.2555 3.618427 32.659833 4.072905
2004-11-18 10:11:18 51°22.63 3°12.996 10.255349 3.619902 32.673184 4.140324
2004-11-18 10:11:22 51°22.63 3°12.995 10.257468 3.61632 32.637232 4.039195
2004-11-18 10:11:29 51°22.63 3°12.993 10.25106 3.615582 32.631283 4.072905
2004-11-18 10:11:34 51°22.631 3°12.991 10.259234 3.617584 32.6521 4.072905
2004-11-18 10:11:38 51°22.631 3°12.99 10.259234 3.617584 32.6521 4.072905
2004-11-18 10:11:44 51°22.631 3°12.988 10.25666 3.618743 32.665186 4.005486
2004-11-18 10:11:48 51°22.631 3°12.987 10.249395 3.620008 32.67715 4.005486
2004-11-18 10:11:54 51°22.631 3°12.985 10.250555 3.619376 32.671532 4.140324
2004-11-18 10:11:57 51°22.631 3°12.984 10.251363 3.619376 32.670805 4.072905
2004-11-18 10:12:02 51°22.631 3°12.983 10.250101 3.616741 32.645093 4.039195
2004-11-18 10:12:06 51°22.631 3°12.981 10.250101 3.616741 32.645093 4.039195
2004-11-18 10:12:14 51°22.632 3°12.978 10.252574 3.616531 32.644431 4.039195
2004-11-18 10:12:18 51°22.631 3°12.977 10.252422 3.61632 32.644496 4.039195
2004-11-18 10:12:24 51°22.632 3°12.975 10.253028 3.621167 32.693149 4.039195
2004-11-18 10:12:29 51°22.631 3°12.973 10.254491 3.618533 32.665979 4.039195
2004-11-18 10:12:44 51°22.631 3°12.968 10.246518 3.612527 32.605701 4.039195
2004-11-18 10:12:50 51°22.631 3°12.966 10.249899 3.617901 32.658906 3.971777
2004-11-18 10:12:55 51°22.63 3°12.964 10.252523 3.617901 32.658906 4.005486
2004-11-18 10:12:58 51°22.63 3°12.962 10.255803 3.620324 32.681777 4.039195
2004-11-18 10:13:04 51°22.631 3°12.96 10.257468 3.618111 32.661021 4.072905
2004-11-18 10:13:18 51°22.63 3°12.955 10.256812 3.618638 32.666309 4.072905
2004-11-18 10:13:24 51°22.63 3°12.953 10.254491 3.615372 32.632073 4.072905
2004-11-18 10:13:29 51°22.63 3°12.951 10.254743 3.615477 32.630226 4.039195
2004-11-18 10:13:35 51°22.63 3°12.949 10.257215 3.618533 32.661617 4.072905
2004-11-18 10:13:40 51°22.63 3°12.947 10.259335 3.615161 32.628506 4.106614
2004-11-18 10:13:45 51°22.63 3°12.945 10.259335 3.615161 32.628506 4.106614
2004-11-18 10:13:56 51°22.63 3°12.942 10.245711 3.6179 32.655272 4.005486
2004-11-18 10:14:02 51°22.631 3°12.939 10.246973 3.618006 32.657783 4.039195
2004-11-18 10:14:06 51°22.631 3°12.937 10.251918 3.611262 32.589386 4.072905
2004-11-18 10:14:12 51°22.631 3°12.935 10.255954 3.616004 32.637691 3.938067
2004-11-18 10:14:18 51°22.631 3°12.933 10.244399 3.612211 32.601803 3.938067
2004-11-18 10:14:22 51°22.631 3°12.932 10.251918 3.615477 32.637488 3.971777
2004-11-18 10:14:26 51°22.631 3°12.93 10.251918 3.615477 32.637488 3.971777
2004-11-18 10:14:32 51°22.631 3°12.929 10.253835 3.615582 32.637093 4.005486
2004-11-18 10:14:35 51°22.631 3°12.927 10.250101 3.614423 32.623282 3.938067
2004-11-18 10:14:42 51°22.631 3°12.924 10.253431 3.617901 32.66036 3.938067
2004-11-18 10:14:47 51°22.631 3°12.921 10.247477 3.613475 32.616669 3.971777
2004-11-18 10:14:50 51°22.63 3°12.921 10.262765 3.61769 32.656791 3.904358
2004-11-18 10:14:54 51°22.631 3°12.92 10.262765 3.61769 32.656791 3.904358
2004-11-18 10:15:09 51°22.63 3°12.914 10.247023 3.615582 32.634914 3.904358
2004-11-18 10:15:14 51°22.63 3°12.912 10.258275 3.617268 32.651107 4.005486
2004-11-18 10:15:19 51°22.629 3°12.91 10.248789 3.614213 32.620441 3.971777
2004-11-18 10:15:24 51°22.629 3°12.909 10.252927 3.617374 32.651438 3.971777
2004-11-18 10:15:28 51°22.629 3°12.907 10.25878 3.616004 32.63987 4.039195
2004-11-18 10:15:34 51°22.629 3°12.905 10.248941 3.613686 32.616606 3.971777
2004-11-18 10:15:38 51°22.629 3°12.903 10.248941 3.613686 32.616606 3.971777
2004-11-18 10:15:44 51°22.629 3°12.901 10.245812 3.618638 32.665582 4.005486
2004-11-18 10:15:48 51°22.628 3°12.9 10.255197 3.614002 32.619778 4.005486
2004-11-18 10:15:54 51°22.628 3°12.898 10.260091 3.609682 32.574979 3.971777
2004-11-18 10:16:00 51°22.628 3°12.896 10.25434 3.617268 32.653287 4.005486
2004-11-18 10:16:03 51°22.629 3°12.894 10.25656 3.614634 32.626123 3.938067
2004-11-18 10:16:08 51°22.628 3°12.893 10.25656 3.614634 32.626123 3.938067
2004-11-18 10:16:14 51°22.628 3°12.891 10.251716 3.617163 32.650776 3.971777
2004-11-18 10:16:18 51°22.628 3°12.889 10.261958 3.616215 32.638353 4.072905
2004-11-18 10:16:24 51°22.628 3°12.887 10.248587 3.615688 32.633793 4.005486
2004-11-18 10:16:28 51°22.628 3°12.885 10.24783 3.6179 32.655999 3.971777
2004-11-18 10:16:34 51°22.628 3°12.883 10.254995 3.615161 32.629958 3.971777
2004-11-18 10:16:38 51°22.628 3°12.882 10.254995 3.615161 32.629958 3.971777
2004-11-18 10:16:42 51°22.629 3°12.881 10.250808 3.618217 32.662079 3.971777
2004-11-18 10:16:49 51°22.629 3°12.879 10.246367 3.61337 32.61416 3.938067
2004-11-18 10:16:51 51°22.629 3°12.879 10.251211 3.614318 32.625129 3.938067
2004-11-18 10:17:00 51°22.63 3°12.877 10.250252 3.613159 32.613497 3.904358
2004-11-18 10:17:06 51°22.631 3°12.875 10.250152 3.609577 32.576821 3.870648
2004-11-18 10:17:10 51°22.632 3°12.874 10.249748 3.615372 32.635704 3.938067
2004-11-18 10:17:14 51°22.634 3°12.875 10.249748 3.615372 32.635704 3.938067
2004-11-18 10:17:44 51°22.654 3°12.869 10.242633 3.61495 32.631474 3.938067
2004-11-18 10:17:47 51°22.656 3°12.866 10.245055 3.611368 32.596972 3.904358
2004-11-18 10:17:52 51°22.661 3°12.863 10.241977 3.618322 32.667499 3.904358
2004-11-18 10:18:04 51°22.671 3°12.851 10.239706 3.612632 32.61329 3.904358
2004-11-18 10:18:08 51°22.674 3°12.847 10.239706 3.612632 32.61329 3.904358
2004-11-18 10:18:14 51°22.677 3°12.839 10.238444 3.611157 32.598485 3.836939
2004-11-18 10:18:18 51°22.68 3°12.834 10.238696 3.612527 32.611507 3.836939
2004-11-18 10:18:24 51°22.684 3°12.823 10.235466 3.613054 32.617521 3.76952
2004-11-18 10:18:28 51°22.687 3°12.817 10.234558 3.611579 32.604166 3.76952
2004-11-18 10:18:34 51°22.689 3°12.805 10.236022 3.611473 32.60456 3.702101
2004-11-18 10:18:38 51°22.691 3°12.798 10.236022 3.611473 32.60456 3.702101
2004-11-18 10:18:42 51°22.692 3°12.789 10.23158 3.611684 32.608127 3.668392
2004-11-18 10:18:49 51°22.694 3°12.772 10.23375 3.608312 32.575009 3.668392
2004-11-18 10:18:54 51°22.695 3°12.757 10.231378 3.612422 32.618436 3.634683
2004-11-18 10:18:59 51°22.697 3°12.741 10.233347 3.607259 32.568059 3.634683
2004-11-18 10:19:02 51°22.697 3°12.731 10.233246 3.606521 32.560656 3.634683
2004-11-18 10:19:08 51°22.699 3°12.71 10.233246 3.606521 32.560656 3.634683
2004-11-18 10:19:14 51°22.701 3°12.686 10.227794 3.609366 32.589213 3.600973
2004-11-18 10:19:18 51°22.704 3°12.669 10.233397 3.607891 32.575856 3.567264
2004-11-18 10:19:23 51°22.706 3°12.647 10.228501 3.606943 32.565612 3.600973
2004-11-18 10:19:26 51°22.708 3°12.633 10.225018 3.605783 32.553253 3.499845
2004-11-18 10:19:34 51°22.714 3°12.594 10.228753 3.607469 32.569449 3.634683
2004-11-18 10:19:38 51°22.718 3°12.574 10.228753 3.607469 32.569449 3.634683
2004-11-18 10:19:44 51°22.724 3°12.542 10.228854 3.607785 32.571897 3.567264
2004-11-18 10:19:48 51°22.729 3°12.521 10.222747 3.606521 32.560656 3.567264
2004-11-18 10:19:54 51°22.736 3°12.486 10.220929 3.606626 32.560989 3.567264
2004-11-18 10:19:58 51°22.741 3°12.463 10.22103 3.605994 32.557543 3.634683
2004-11-18 10:20:04 51°22.749 3°12.429 10.22835 3.606732 32.564947 3.533554
2004-11-18 10:20:09 51°22.755 3°12.4 10.22835 3.606732 32.564947 3.533554
2004-11-18 10:20:15 51°22.762 3°12.365 10.224564 3.604625 32.545244 3.533554
2004-11-18 10:20:19 51°22.768 3°12.343 10.231933 3.605573 32.558388 3.533554
2004-11-18 10:20:23 51°22.773 3°12.32 10.227138 3.603044 32.534452 3.533554
2004-11-18 10:20:36 51°22.792 3°12.242 10.2391 3.604098 32.54213 3.365007
2004-11-18 10:20:41 51°22.8 3°12.213 10.246317 3.604414 32.543128 3.297589
2004-11-18 10:20:46 51°22.807 3°12.182 10.248486 3.601674 32.514909 3.263879
2004-11-18 10:20:51 51°22.814 3°12.152 10.247982 3.59904 32.484134 3.263879
2004-11-18 10:20:57 51°22.824 3°12.115 10.247982 3.59904 32.484134 3.263879
2004-11-18 10:21:02 51°22.832 3°12.085 10.252069 3.596406 32.454093 3.297589
2004-11-18 10:21:06 51°22.838 3°12.06 10.252775 3.56427 32.127674 3.365007
2004-11-18 10:21:12 51°22.847 3°12.024 10.259234 3.605678 32.541328 3.432426
2004-11-18 10:21:17 51°22.855 3°11.994 10.262614 3.604835 32.530698 3.499845
2004-11-18 10:21:22 51°22.863 3°11.964 10.261554 3.59904 32.471844 3.499845
2004-11-18 10:21:27 51°22.87 3°11.934 10.261554 3.59904 32.471844 3.499845
2004-11-18 10:21:32 51°22.878 3°11.904 10.268314 3.609682 32.574979 3.634683
2004-11-18 10:21:36 51°22.884 3°11.88 10.265489 3.598829 32.463951 3.80323
2004-11-18 10:21:41 51°22.892 3°11.85 10.268314 3.596406 32.436043 4.106614
2004-11-18 10:21:46 51°22.899 3°11.82 10.269777 3.611368 32.583918 4.308871
2004-11-18 10:21:51 51°22.906 3°11.791 10.267608 3.606837 32.535578 4.477418
2004-11-18 10:21:56 51°22.914 3°11.76 10.267608 3.606837 32.535578 4.477418
2004-11-18 10:22:02 51°22.923 3°11.726 10.26781 3.610209 32.569394 4.511127
2004-11-18 10:22:06 51°22.929 3°11.703 10.269576 3.618427 32.648936 4.544836
2004-11-18 10:22:12 51°22.938 3°11.667 10.276133 3.621799 32.68204 4.511127
2004-11-18 10:22:15 51°22.943 3°11.65 10.277344 3.624749 32.712373 4.376289
2004-11-18 10:22:22 51°22.953 3°11.609 10.274872 3.616109 32.624229 4.275161
2004-11-18 10:22:42 51°22.982 3°11.493 10.278806 3.623274 32.690298 4.140324
2004-11-18 10:22:49 51°22.992 3°11.453 10.279109 3.630755 32.764637 4.106614
2004-11-18 10:22:54 51°22.999 3°11.425 10.281076 3.6336 32.792461 4.207742
2004-11-18 10:22:58 51°23.005 3°11.402 10.283699 3.625487 32.711771 4.174033
2004-11-18 10:23:02 51°23.011 3°11.378 10.281379 3.63792 32.834365 4.207742
2004-11-18 10:23:09 51°23.022 3°11.338 10.281379 3.63792 32.834365 4.207742
2004-11-18 10:23:14 51°23.029 3°11.309 10.280723 3.626646 32.721945 4.106614
2004-11-18 10:23:28 51°23.05 3°11.228 10.281832 3.620324 32.654165 4.174033
2004-11-18 10:23:32 51°23.056 3°11.204 10.281832 3.620324 32.654165 4.174033
2004-11-18 10:23:38 51°23.064 3°11.17 10.283547 3.636024 32.811678 4.207742
2004-11-18 10:23:43 51°23.072 3°11.141 10.288389 3.628542 32.737336 4.275161
2004-11-18 10:23:46 51°23.076 3°11.123 10.28385 3.636234 32.813064 4.241452
2004-11-18 10:23:52 51°23.085 3°11.088 10.287481 3.631493 32.764753 4.174033
2004-11-18 10:23:58 51°23.093 3°11.054 10.28274 3.632968 32.779555 4.140324
2004-11-18 10:24:02 51°23.099 3°11.031 10.28274 3.632968 32.779555 4.140324
2004-11-18 10:24:08 51°23.108 3°10.995 10.28617 3.629596 32.744996 4.106614
2004-11-18 10:24:11 51°23.112 3°10.979 10.284203 3.610314 32.552348 4.039195
2004-11-18 10:24:26 51°23.134 3°10.891 10.285161 3.633916 32.787613 4.005486
2004-11-18 10:24:34 51°23.145 3°10.843 10.285161 3.633916 32.787613 4.005486
2004-11-18 10:24:38 51°23.151 3°10.82 10.284203 3.637499 32.823565 3.938067
2004-11-18 10:24:42 51°23.156 3°10.796 10.281379 3.624117 32.690032 3.904358
2004-11-18 10:24:46 51°23.162 3°10.773 10.280118 3.638974 32.83983 3.971777
2004-11-18 10:24:51 51°23.169 3°10.744 10.28042 3.630018 32.748496 3.80323
2004-11-18 10:24:58 51°23.181 3°10.705 10.279462 3.63655 32.815507 3.836939
2004-11-18 10:25:03 51°23.189 3°10.679 10.279462 3.63655 32.815507 3.836939
2004-11-18 10:25:08 51°23.199 3°10.652 10.277797 3.631914 32.770439 3.836939
2004-11-18 10:25:10 51°23.203 3°10.642 10.282236 3.636445 32.815179 3.80323
2004-11-18 10:25:18 51°23.219 3°10.599 10.277192 3.609787 32.547791 3.702101
2004-11-18 10:25:23 51°23.23 3°10.572 10.274569 3.612 32.569973 3.668392
2004-11-18 10:25:28 51°23.241 3°10.546 10.275679 3.632968 32.781742 3.634683
2004-11-18 10:25:32 51°23.249 3°10.525 10.275679 3.632968 32.781742 3.634683
2004-11-18 10:25:38 51°23.262 3°10.497 10.274721 3.633916 32.792717 3.634683
2004-11-18 10:25:43 51°23.274 3°10.474 10.272552 3.625592 32.708464 3.567264
2004-11-18 10:25:47 51°23.285 3°10.457 10.275124 3.602622 32.479589 3.634683
2004-11-18 10:25:54 51°23.304 3°10.426 10.272501 3.619902 32.65502 3.600973
2004-11-18 10:25:58 51°23.315 3°10.411 10.27124 3.620534 32.660636 3.533554
2004-11-18 10:26:59 51°23.499 3°10.201 10.271745 3.58334 32.291448 3.331298
2004-11-18 10:27:06 51°23.52 3°10.179 10.270786 3.583867 32.296724 3.365007
2004-11-18 10:27:10 51°23.533 3°10.166 10.269626 3.619481 32.655876 3.263879
2004-11-18 10:27:16 51°23.552 3°10.145 10.269122 3.617057 32.631565 3.297589
2004-11-18 10:27:21 51°23.568 3°10.129 10.269122 3.617057 32.631565 3.297589
2004-11-18 10:27:26 51°23.583 3°10.112 10.268163 3.582076 32.280939 3.297589
2004-11-18 10:27:31 51°23.599 3°10.095 10.270887 3.616109 32.621327 3.331298
2004-11-18 10:27:36 51°23.615 3°10.077 10.269777 3.62359 32.697832 3.365007
2004-11-18 10:27:41 51°23.63 3°10.06 10.271845 3.613053 32.592855 3.331298
2004-11-18 10:27:50 51°23.658 3°10.029 10.271694 3.616952 32.631959 3.398717
2004-11-18 10:28:08 51°23.714 3°9.964 10.273006 3.604519 32.505825 3.263879
2004-11-18 10:28:14 51°23.733 3°9.943 10.27351 3.617057 32.631565 3.263879
2004-11-18 10:28:17 51°23.742 3°9.933 10.270786 3.614529 32.60765 3.162751
2004-11-18 10:28:22 51°23.757 3°9.915 10.268668 3.622326 32.684418 3.23017
2004-11-18 10:28:28 51°23.776 3°9.894 10.26786 3.628964 32.748846 3.23017
2004-11-18 10:28:31 51°23.785 3°9.883 10.26786 3.628964 32.748846 3.23017
2004-11-18 10:28:38 51°23.807 3°9.859 10.267659 3.598934 32.447681 3.19646
2004-11-18 10:28:43 51°23.823 3°9.842 10.265641 3.617689 32.635003 3.19646
2004-11-18 10:28:48 51°23.838 3°9.824 10.263068 3.617795 32.638964 3.095332
2004-11-18 10:28:53 51°23.853 3°9.807 10.261302 3.575438 32.216616 3.061623
2004-11-18 10:28:58 51°23.868 3°9.79 10.263572 3.622642 32.689771 3.061623
2004-11-18 10:29:03 51°23.884 3°9.773 10.263572 3.622642 32.689771 3.061623
2004-11-18 10:29:08 51°23.899 3°9.756 10.263017 3.63065 32.770867 2.960494
2004-11-18 10:29:13 51°23.915 3°9.739 10.261756 3.631598 32.782574 2.926785
2004-11-18 10:29:18 51°23.931 3°9.722 10.260293 3.630018 32.767437 2.893076
2004-11-18 10:29:22 51°23.944 3°9.709 10.257821 3.627594 32.743838 2.859366
2004-11-18 10:29:28 51°23.963 3°9.69 10.261908 3.630861 32.777357 2.825657
2004-11-18 10:29:33 51°23.979 3°9.673 10.261908 3.630861 32.777357 2.825657
2004-11-18 10:29:38 51°23.995 3°9.658 10.257115 3.63065 32.775971 2.859366
2004-11-18 10:29:42 51°24.007 3°9.644 10.257266 3.628332 32.753428 2.859366
2004-11-18 10:29:48 51°24.026 3°9.623 10.257165 3.629807 32.768966 2.859366
2004-11-18 10:29:52 51°24.038 3°9.609 10.259637 3.62928 32.763677 2.758238
2004-11-18 10:29:58 51°24.057 3°9.588 10.254995 3.626435 32.734389 2.791947
2004-11-18 10:30:03 51°24.071 3°9.57 10.254995 3.626435 32.734389 2.791947
2004-11-18 10:30:06 51°24.08 3°9.558 10.254037 3.632863 32.801106 2.859366
2004-11-18 10:30:20 51°24.119 3°9.503 10.24783 3.629912 32.77367 2.859366
2004-11-18 10:30:24 51°24.129 3°9.486 10.248739 3.631598 32.789139 2.825657
2004-11-18 10:30:30 51°24.144 3°9.462 10.249597 3.626751 32.742661 2.758238
2004-11-18 10:30:35 51°24.156 3°9.441 10.251918 3.636551 32.844718 2.791947
2004-11-18 10:30:38 51°24.164 3°9.429 10.253078 3.638658 32.868082 2.65711
2004-11-18 10:30:44 51°24.179 3°9.402 10.253078 3.638658 32.868082 2.65711
2004-11-18 10:30:50 51°24.194 3°9.375 10.251918 3.638237 32.864579 2.65711
2004-11-18 10:30:54 51°24.202 3°9.355 10.25106 3.637605 32.857496 2.65711
2004-11-18 10:30:59 51°24.212 3°9.33 10.25222 3.639185 32.872644 2.690819
2004-11-18 10:31:06 51°24.223 3°9.292 10.253684 3.638026 32.858805 2.893076
2004-11-18 10:31:10 51°24.229 3°9.269 10.251867 3.640555 32.885674 3.095332
2004-11-18 10:31:14 51°24.234 3°9.246 10.251867 3.640555 32.885674 3.095332
2004-11-18 10:31:37 51°24.252 3°9.102 10.242986 3.64045 32.885347 3.162751
2004-11-18 10:31:42 51°24.254 3°9.07 10.23693 3.638448 32.865234 3.162751
2004-11-18 10:31:46 51°24.255 3°9.045 10.232943 3.637815 32.859613 3.129042
2004-11-18 10:31:51 51°24.257 3°9.013 10.228804 3.637183 32.854725 3.095332
2004-11-18 10:31:57 51°24.26 3°8.973 10.228804 3.637183 32.854725 3.095332
2004-11-18 10:32:02 51°24.262 3°8.941 10.220929 3.638026 32.865388 3.129042
2004-11-18 10:32:06 51°24.263 3°8.915 10.214922 3.633179 32.818154 3.027913
2004-11-18 10:32:12 51°24.265 3°8.877 10.212549 3.639818 32.888512 3.162751
2004-11-18 10:32:14 51°24.265 3°8.863 10.205632 3.637499 32.869607 3.19646
2004-11-18 10:32:22 51°24.268 3°8.812 10.202804 3.636446 32.864872 3.23017
2004-11-18 10:32:26 51°24.269 3°8.787 10.202804 3.636446 32.864872 3.23017
2004-11-18 10:32:30 51°24.27 3°8.762 10.198916 3.637921 32.884094 3.365007
2004-11-18 10:32:37 51°24.272 3°8.717 10.198664 3.641609 32.924841 3.398717
2004-11-18 10:32:42 51°24.273 3°8.685 10.198462 3.632231 32.835674 3.466136
2004-11-18 10:32:44 51°24.274 3°8.672 10.196341 3.638027 32.896145 3.432426
2004-11-18 10:32:52 51°24.276 3°8.621 10.195684 3.638132 32.901604 3.499845
2004-11-18 10:32:57 51°24.277 3°8.589 10.195684 3.638132 32.901604 3.499845
2004-11-18 10:32:59 51°24.278 3°8.577 10.196694 3.6375 32.896711 3.466136
2004-11-18 10:33:06 51°24.28 3°8.533 10.194624 3.632758 32.851219 3.466136
2004-11-18 10:33:10 51°24.282 3°8.507 10.196644 3.637289 32.897524 3.499845
2004-11-18 10:33:18 51°24.285 3°8.457 10.194826 3.628333 32.807446 3.466136
2004-11-18 10:33:22 51°24.286 3°8.432 10.19326 3.635814 32.884151 3.432426
2004-11-18 10:33:25 51°24.287 3°8.413 10.19326 3.635814 32.884151 3.432426
2004-11-18 10:33:30 51°24.29 3°8.38 10.193513 3.621062 32.735809 3.398717
2004-11-18 10:33:37 51°24.292 3°8.335 10.194068 3.636551 32.892304 3.398717
2004-11-18 10:33:42 51°24.294 3°8.303 10.193058 3.634549 32.872898 3.365007
2004-11-18 10:33:47 51°24.296 3°8.27 10.191543 3.634655 32.875424 3.297589
2004-11-18 10:34:00 51°24.301 3°8.186 10.190937 3.634655 32.87689 3.297589
2004-11-18 10:34:04 51°24.303 3°8.161 10.19023 3.631915 32.849331 3.19646
2004-11-18 10:34:10 51°24.306 3°8.122 10.190482 3.631178 32.842644 3.19646
2004-11-18 10:34:15 51°24.307 3°8.091 10.190482 3.631178 32.842644 3.19646
2004-11-18 10:34:44 51°24.317 3°7.908 10.183411 3.628754 32.821195 3.23017
2004-11-18 10:34:47 51°24.318 3°7.889 10.184371 3.631494 32.848753 3.23017
2004-11-18 10:34:54 51°24.321 3°7.847 10.184624 3.630862 32.843125 3.19646
2004-11-18 10:34:58 51°24.321 3°7.822 10.18225 3.624645 32.782787 3.19646
2004-11-18 10:35:03 51°24.323 3°7.789 10.181543 3.630756 32.84353 3.23017
2004-11-18 10:35:08 51°24.326 3°7.758 10.181543 3.630756 32.84353 3.23017
2004-11-18 10:35:39 51°24.34 3°7.562 10.171137 3.631599 32.859338 3.23017
2004-11-18 10:35:49 51°24.344 3°7.498 10.170732 3.62886 32.832503 3.263879
2004-11-18 10:35:54 51°24.346 3°7.467 10.167247 3.628544 32.830787 3.297589
2004-11-18 10:35:59 51°24.348 3°7.436 10.16851 3.632021 32.867244 3.297589
2004-11-18 10:36:04 51°24.35 3°7.405 10.164114 3.612317 32.670485 3.297589
2004-11-18 10:36:10 51°24.352 3°7.369 10.164114 3.612317 32.670485 3.297589
2004-11-18 10:36:14 51°24.353 3°7.344 10.165276 3.622116 32.769777 3.365007
2004-11-18 10:36:17 51°24.354 3°7.326 10.163053 3.625172 32.801984 3.331298
2004-11-18 10:36:24 51°24.357 3°7.281 10.161436 3.628438 32.835587 3.297589
2004-11-18 10:36:27 51°24.358 3°7.263 10.15982 3.623802 32.791127 3.365007
2004-11-18 10:36:34 51°24.361 3°7.219 10.157596 3.626436 32.818368 3.365007
2004-11-18 10:36:38 51°24.363 3°7.195 10.157596 3.626436 32.818368 3.365007
2004-11-18 10:36:44 51°24.365 3°7.156 10.154413 3.619587 32.750913 3.398717
2004-11-18 10:36:48 51°24.367 3°7.131 10.153857 3.625488 32.811021 3.365007
2004-11-18 10:36:54 51°24.37 3°7.092 10.148804 3.623275 32.790947 3.398717
2004-11-18 10:36:58 51°24.372 3°7.067 10.149612 3.62591 32.818192 3.499845
2004-11-18 10:37:03 51°24.375 3°7.035 10.145772 3.62317 32.793546 3.499845
2004-11-18 10:37:09 51°24.377 3°6.997 10.145772 3.62317 32.793546 3.499845
2004-11-18 10:37:14 51°24.379 3°6.965 10.14279 3.626015 32.82438 3.466136
2004-11-18 10:37:19 51°24.381 3°6.934 10.143851 3.60747 32.639224 3.466136
2004-11-18 10:37:24 51°24.382 3°6.902 10.140313 3.622011 32.787735 3.432426
2004-11-18 10:37:29 51°24.384 3°6.87 10.138393 3.616532 32.734779 3.600973
2004-11-18 10:37:34 51°24.387 3°6.838 10.13627 3.622854 32.800613 3.466136
2004-11-18 10:37:39 51°24.389 3°6.805 10.13627 3.622854 32.800613 3.466136
2004-11-18 10:37:44 51°24.391 3°6.774 10.135613 3.618218 32.755403 3.432426
2004-11-18 10:37:48 51°24.392 3°6.749 10.131973 3.619272 32.766742 3.466136
2004-11-18 10:37:54 51°24.395 3°6.711 10.1298 3.616005 32.736053 3.499845
2004-11-18 10:37:58 51°24.397 3°6.686 10.126817 3.621274 32.790558 3.466136
2004-11-18 10:38:04 51°24.399 3°6.649 10.126312 3.621274 32.792022 3.466136
2004-11-18 10:38:09 51°24.402 3°6.618 10.126312 3.621274 32.792022 3.466136
2004-11-18 10:38:14 51°24.404 3°6.586 10.123481 3.613476 32.715712 3.466136
2004-11-18 10:38:19 51°24.407 3°6.554 10.124896 3.616637 32.748999 3.432426
2004-11-18 10:38:24 51°24.409 3°6.523 10.121004 3.618323 32.769634 3.533554
2004-11-18 10:38:29 51°24.413 3°6.493 10.122975 3.618218 32.768572 3.499845
2004-11-18 10:38:34 51°24.415 3°6.461 10.118122 3.618113 32.768975 3.499845
2004-11-18 10:38:39 51°24.417 3°6.43 10.118122 3.618113 32.768975 3.499845
2004-11-18 10:38:44 51°24.42 3°6.398 10.116656 3.618429 32.773623 3.499845
2004-11-18 10:38:48 51°24.422 3°6.373 10.11524 3.615057 32.741129 3.499845
2004-11-18 10:38:54 51°24.424 3°6.335 10.115189 3.614952 32.741531 3.466136
2004-11-18 10:38:59 51°24.427 3°6.305 10.116807 3.607049 32.664148 3.432426
2004-11-18 10:39:04 51°24.428 3°6.274 10.11792 3.612634 32.722573 3.466136
2004-11-18 10:39:08 51°24.43 3°6.249 10.11792 3.612634 32.722573 3.466136
2004-11-18 10:39:14 51°24.433 3°6.21 10.117262 3.615373 32.750166 3.432426
2004-11-18 10:39:18 51°24.435 3°6.186 10.114128 3.614425 32.742077 3.365007
2004-11-18 10:39:24 51°24.436 3°6.148 10.115189 3.613477 32.731794 3.365007
2004-11-18 10:39:29 51°24.438 3°6.117 10.117161 3.607576 32.673102 3.297589
2004-11-18 10:39:34 51°24.44 3°6.087 10.115695 3.612528 32.722243 3.365007
2004-11-18 10:39:44 51°24.443 3°6.026 10.115139 3.604731 32.645187 3.365007
2004-11-18 10:39:50 51°24.446 3°5.988 10.113875 3.616005 32.759462 3.331298
2004-11-18 10:39:55 51°24.447 3°5.957 10.115139 3.614636 32.7442 3.398717
2004-11-18 10:39:59 51°24.449 3°5.933 10.115594 3.610737 32.704204 3.263879
2004-11-18 10:40:22 51°24.458 3°5.788 10.115695 3.598093 32.578362 3.162751
2004-11-18 10:40:30 51°24.46 3°5.738 10.11706 3.613898 32.738234 3.162751
2004-11-18 10:40:34 51°24.462 3°5.712 10.115948 3.597882 32.576241 3.162751
2004-11-18 10:40:39 51°24.465 3°5.681 10.115948 3.597882 32.576241 3.162751
2004-11-18 10:40:44 51°24.467 3°5.65 10.11797 3.614952 32.747384 3.095332
2004-11-18 10:40:47 51°24.467 3°5.63 10.118274 3.611369 32.711301 3.129042
2004-11-18 10:40:54 51°24.47 3°5.587 10.118981 3.613477 32.731794 3.061623
2004-11-18 10:40:58 51°24.472 3°5.562 10.116858 3.609789 32.694654 3.129042
2004-11-18 10:41:04 51°24.475 3°5.525 10.117363 3.610526 32.702812 3.061623
2004-11-18 10:41:09 51°24.477 3°5.494 10.117363 3.610526 32.702812 3.061623
2004-11-18 10:41:14 51°24.48 3°5.463 10.117363 3.614003 32.737832 3.095332
2004-11-18 10:41:18 51°24.483 3°5.437 10.114785 3.607471 32.669851 3.027913
2004-11-18 10:41:24 51°24.488 3°5.4 10.11251 3.614952 32.74592 3.095332
2004-11-18 10:41:29 51°24.492 3°5.369 10.113622 3.613477 32.731063 3.095332
2004-11-18 10:41:34 51°24.496 3°5.339 10.110487 3.614846 32.746323 3.162751
2004-11-18 10:41:39 51°24.501 3°5.308 10.110487 3.614846 32.746323 3.162751
2004-11-18 10:41:44 51°24.506 3°5.278 10.105886 3.61453 32.743139 3.129042
2004-11-18 10:41:49 51°24.511 3°5.247 10.103408 3.613582 32.73505 3.061623
2004-11-18 10:41:54 51°24.516 3°5.217 10.100576 3.610948 32.708518 3.129042
2004-11-18 10:41:56 51°24.518 3°5.204 10.096277 3.607892 32.678476 3.061623
2004-11-18 10:42:04 51°24.527 3°5.156 10.092282 3.600727 32.609249 3.061623
2004-11-18 10:42:10 51°24.534 3°5.121 10.092282 3.600727 32.609249 3.061623
2004-11-18 10:42:14 51°24.538 3°5.097 10.084037 3.608103 32.68498 3.095332
2004-11-18 10:42:17 51°24.542 3°5.079 10.082368 3.610316 32.711654 3.162751
2004-11-18 10:42:30 51°24.557 3°5.002 10.070985 3.608946 32.702972 3.095332
2004-11-18 10:42:36 51°24.565 3°4.966 10.065369 3.61 32.718709 3.19646
2004-11-18 10:42:59 51°24.593 3°4.829 10.056868 3.58977 32.532395 3.19646
2004-11-18 10:43:06 51°24.601 3°4.787 10.054995 3.604205 32.68078 3.095332
2004-11-18 10:43:10 51°24.606 3°4.762 10.05287 3.603994 32.683775 3.027913
2004-11-18 10:43:14 51°24.611 3°4.738 10.05287 3.603994 32.683775 3.027913
2004-11-18 10:43:20 51°24.618 3°4.702 10.053376 3.603784 32.683845 3.095332
2004-11-18 10:43:24 51°24.622 3°4.678 10.051858 3.602098 32.667578 2.960494
2004-11-18 10:43:30 51°24.629 3°4.643 10.050036 3.601992 32.66944 2.893076
2004-11-18 10:43:34 51°24.633 3°4.618 10.050694 3.599885 32.650385 2.859366
2004-11-18 10:43:38 51°24.638 3°4.594 10.048214 3.600201 32.654303 2.893076
2004-11-18 10:43:50 51°24.652 3°4.523 10.050289 3.598937 32.642285 2.893076
2004-11-18 10:43:55 51°24.658 3°4.492 10.048517 3.590929 32.563013 2.926785
2004-11-18 10:44:00 51°24.663 3°4.461 10.049884 3.594828 32.603044 2.859366
2004-11-18 10:44:06 51°24.67 3°4.424 10.048619 3.599253 32.648396 2.893076
2004-11-18 10:44:10 51°24.674 3°4.4 10.046442 3.598305 32.638102 2.791947
2004-11-18 10:44:14 51°24.678 3°4.375 10.046442 3.598305 32.638102 2.791947
2004-11-18 10:44:19 51°24.683 3°4.345 10.047303 3.600623 32.662209 2.960494
2004-11-18 10:44:24 51°24.688 3°4.314 10.046189 3.598831 32.644146 2.960494
2004-11-18 10:44:30 51°24.693 3°4.277 10.046544 3.597989 32.634915 2.859366
2004-11-18 10:44:34 51°24.697 3°4.252 10.046341 3.595144 32.608421 2.859366
2004-11-18 10:44:40 51°24.704 3°4.216 10.045683 3.599569 32.654508 2.893076
2004-11-18 10:44:46 51°24.71 3°4.179 10.045683 3.599569 32.654508 2.893076
2004-11-18 10:44:50 51°24.714 3°4.154 10.044468 3.598094 32.63817 2.859366
2004-11-18 10:44:55 51°24.719 3°4.124 10.04376 3.597356 32.631463 2.859366
2004-11-18 10:45:00 51°24.724 3°4.093 10.041381 3.600096 32.65909 2.859366
2004-11-18 10:45:04 51°24.727 3°4.068 10.04052 3.596619 32.624025 2.825657
2004-11-18 10:45:10 51°24.733 3°4.032 10.043608 3.598937 32.650325 2.859366
2004-11-18 10:45:15 51°24.737 3°4.001 10.043608 3.598937 32.650325 2.859366
2004-11-18 10:45:20 51°24.742 3°3.971 10.038901 3.597883 32.638237 2.893076
2004-11-18 10:45:24 51°24.745 3°3.946 10.040065 3.587136 32.531336 2.825657
2004-11-18 10:45:30 51°24.75 3°3.909 10.037483 3.597672 32.637573 2.859366
2004-11-18 10:45:34 51°24.752 3°3.884 10.039862 3.59251 32.5877 2.758238
2004-11-18 10:45:39 51°24.756 3°3.852 10.038749 3.588717 32.547997 2.791947
2004-11-18 10:45:42 51°24.757 3°3.834 10.038749 3.588717 32.547997 2.791947
2004-11-18 10:45:48 51°24.761 3°3.795 10.037736 3.598199 32.646542 2.791947
2004-11-18 10:45:52 51°24.763 3°3.77 10.03642 3.596935 32.633789 2.825657
2004-11-18 10:46:06 51°24.772 3°3.682 10.03642 3.597989 32.645879 2.859366
2004-11-18 10:46:10 51°24.775 3°3.657 10.033484 3.599358 32.661159 2.758238
2004-11-18 10:46:14 51°24.777 3°3.632 10.033484 3.599358 32.661159 2.758238
2004-11-18 10:46:19 51°24.779 3°3.6 10.034092 3.596092 32.62748 2.690819
2004-11-18 10:46:22 51°24.78 3°3.581 10.033737 3.598094 32.647673 2.825657
2004-11-18 10:46:30 51°24.783 3°3.534 10.032168 3.597251 32.63917 2.825657
2004-11-18 10:46:34 51°24.785 3°3.509 10.030143 3.599148 32.659765 2.690819
2004-11-18 10:46:41 51°24.789 3°3.466 10.028068 3.591245 32.580788 2.825657
2004-11-18 10:46:46 51°24.792 3°3.437 10.031561 3.589665 32.564849 2.758238
2004-11-18 10:46:51 51°24.794 3°3.406 10.033839 3.596303 32.631798 2.758238
2004-11-18 10:46:58 51°24.796 3°3.364 10.033839 3.596303 32.631798 2.758238
2004-11-18 10:47:02 51°24.798 3°3.34 10.033181 3.598199 32.653855 2.65711
2004-11-18 10:47:07 51°24.8 3°3.309 10.032725 3.593458 32.606025 2.65711
2004-11-18 10:47:12 51°24.802 3°3.277 10.034041 3.59704 32.642894 2.690819
2004-11-18 10:47:18 51°24.804 3°3.24 10.033586 3.595355 32.624425 2.6234
2004-11-18 10:47:22 51°24.805 3°3.214 10.032219 3.596724 32.638242 2.690819
2004-11-18 10:47:26 51°24.807 3°3.189 10.032219 3.596724 32.638242 2.690819
2004-11-18 10:47:31 51°24.809 3°3.156 10.03394 3.588295 32.553954 2.758238
2004-11-18 10:47:38 51°24.811 3°3.111 10.031763 3.593563 32.606357 2.758238
2004-11-18 10:47:42 51°24.813 3°3.085 10.030751 3.596514 32.636848 2.724529
2004-11-18 10:47:46 51°24.813 3°3.059 10.031611 3.59683 32.638574 2.825657
2004-11-18 10:47:52 51°24.815 3°3.02 10.031611 3.595671 32.626883 2.825657
2004-11-18 10:47:55 51°24.816 3°3 10.031611 3.595671 32.626883 2.825657
2004-11-18 10:48:02 51°24.817 3°2.955 10.032674 3.597673 32.647078 2.724529
2004-11-18 10:48:06 51°24.819 3°2.93 10.033079 3.594617 32.616985 2.65711
2004-11-18 10:48:20 51°24.822 3°2.84 10.034699 3.598199 32.653855 2.65711
2004-11-18 10:48:24 51°24.823 3°2.814 10.037736 3.59841 32.656713 2.589691
2004-11-18 10:48:30 51°24.825 3°2.776 10.040166 3.600096 32.672991 2.589691
2004-11-18 10:48:35 51°24.826 3°2.744 10.041786 3.596092 32.631865 2.65711
2004-11-18 10:48:40 51°24.826 3°2.712 10.039103 3.600623 32.676842 2.589691
2004-11-18 10:48:46 51°24.828 3°2.674 10.039103 3.600623 32.676842 2.589691
2004-11-18 10:48:50 51°24.829 3°2.649 10.040217 3.589033 32.558474 2.589691
2004-11-18 10:48:55 51°24.831 3°2.617 10.042241 3.602203 32.689128 2.6234
2004-11-18 10:49:00 51°24.832 3°2.585 10.041027 3.601255 32.678829 2.589691
2004-11-18 10:49:06 51°24.835 3°2.547 10.041988 3.600412 32.669593 2.589691
2004-11-18 10:49:10 51°24.836 3°2.522 10.043102 3.599991 32.663878 2.555982
2004-11-18 10:49:15 51°24.837 3°2.489 10.043102 3.599991 32.663878 2.555982
2004-11-18 10:49:18 51°24.838 3°2.47 10.043406 3.596724 32.630933 2.589691
2004-11-18 10:49:25 51°24.84 3°2.426 10.041533 3.601782 32.680484 2.522272
2004-11-18 10:49:30 51°24.842 3°2.393 10.043709 3.602309 32.687262 2.555982
2004-11-18 10:49:36 51°24.843 3°2.355 10.04462 3.599991 32.663147 2.555982
2004-11-18 10:49:38 51°24.844 3°2.342 10.042393 3.601255 32.675901 2.522272
2004-11-18 10:49:44 51°24.845 3°2.304 10.042393 3.601255 32.675901 2.522272
2004-11-18 10:49:50 51°24.847 3°2.266 10.042849 3.591351 32.576013 2.522272
2004-11-18 10:49:54 51°24.849 3°2.24 10.043001 3.602941 32.692908 2.522272
2004-11-18 10:50:00 51°24.849 3°2.201 10.043051 3.601782 32.680484 2.522272
2004-11-18 10:50:05 51°24.851 3°2.169 10.043709 3.600939 32.671249 2.522272
2004-11-18 10:50:10 51°24.851 3°2.136 10.045531 3.600096 32.66421 2.522272
2004-11-18 10:50:15 51°24.851 3°2.104 10.045531 3.600096 32.66421 2.522272
2004-11-18 10:50:20 51°24.85 3°2.072 10.042596 3.603573 32.698553 2.488563
2004-11-18 10:50:36 51°24.848 3°1.971 10.038951 3.589243 32.554766 2.488563
2004-11-18 10:50:41 51°24.848 3°1.939 10.035408 3.604205 32.704931 2.488563
2004-11-18 10:50:46 51°24.848 3°1.907 10.03475 3.603468 32.696758 2.454853
2004-11-18 10:50:49 51°24.848 3°1.888 10.03475 3.603468 32.696758 2.454853
2004-11-18 10:50:56 51°24.847 3°1.842 10.031814 3.598937 32.651788 2.488563
2004-11-18 10:51:01 51°24.847 3°1.81 10.028776 3.595565 32.619974 2.488563
2004-11-18 10:51:04 51°24.846 3°1.791 10.028017 3.60115 32.677766 2.522272
2004-11-18 10:51:28 51°24.844 3°1.637 10.01779 3.600834 32.682629 2.421144
2004-11-18 10:51:34 51°24.844 3°1.597 10.01779 3.600834 32.682629 2.421144
2004-11-18 10:51:38 51°24.843 3°1.572 10.017435 3.600201 32.67625 2.421144
2004-11-18 10:51:42 51°24.844 3°1.546 10.018954 3.597567 32.651866 2.454853
2004-11-18 10:51:48 51°24.843 3°1.507 10.017638 3.6041 32.71999 2.454853
2004-11-18 10:51:50 51°24.843 3°1.494 10.019967 3.587242 32.552809 2.488563
2004-11-18 10:51:57 51°24.842 3°1.449 10.020119 3.603995 32.723326 2.421144
2004-11-18 10:52:03 51°24.843 3°1.41 10.020119 3.603995 32.723326 2.421144
2004-11-18 10:52:07 51°24.844 3°1.384 10.021435 3.601044 32.695011 2.454853
2004-11-18 10:52:36 51°24.857 3°1.199 10.025232 3.6041 32.723656 2.421144
2004-11-18 10:52:40 51°24.859 3°1.173 10.025587 3.602203 32.703046 2.454853
2004-11-18 10:52:46 51°24.863 3°1.135 10.028118 3.601993 32.700186 2.421144
2004-11-18 10:52:51 51°24.866 3°1.104 10.028118 3.601993 32.700186 2.421144
2004-11-18 10:52:56 51°24.868 3°1.072 10.030447 3.597462 32.652998 2.421144
2004-11-18 10:53:06 51°24.875 3°1.008 10.036825 3.604943 32.728498 2.454853
2004-11-18 10:53:20 51°24.883 3°0.919 10.045228 3.605154 32.729158 2.421144
2004-11-18 10:53:26 51°24.885 3°0.88 10.045177 3.601466 32.689008 2.387435
2004-11-18 10:53:30 51°24.887 3°0.854 10.049125 3.602625 32.697774 2.421144
2004-11-18 10:53:35 51°24.888 3°0.822 10.051402 3.606523 32.734183 2.387435
2004-11-18 10:53:40 51°24.889 3°0.79 10.054186 3.603678 32.703278 2.454853
2004-11-18 10:53:46 51°24.89 3°0.751 10.054186 3.603678 32.703278 2.454853
2004-11-18 10:53:50 51°24.891 3°0.725 10.054439 3.606207 32.727328 2.387435
2004-11-18 10:53:54 51°24.891 3°0.699 10.053477 3.605259 32.715561 2.353725
2004-11-18 10:54:00 51°24.892 3°0.661 10.054135 3.604837 32.708379 2.387435
2004-11-18 10:54:03 51°24.893 3°0.642 10.053933 3.606207 32.72 2.353725
2004-11-18 10:54:10 51°24.895 3°0.597 10.052566 3.603573 32.691232 2.320016
2004-11-18 10:54:24 51°24.899 3°0.507 10.044064 3.610843 32.763105 2.252597
2004-11-18 10:54:26 51°24.898 3°0.494 10.036066 3.593669 32.58917 2.252597
2004-11-18 10:54:31 51°24.9 3°0.462 10.033586 3.611686 32.772343 2.185178
2004-11-18 10:55:00 51°24.907 3°0.279 10.029434 3.613688 32.804295 1.915503
2004-11-18 10:55:05 51°24.907 3°0.247 10.024574 3.614426 32.813945 1.881794
2004-11-18 10:55:10 51°24.909 3°0.216 10.021435 3.612635 32.798067 1.881794
2004-11-18 10:55:15 51°24.909 3°0.184 10.021435 3.612635 32.798067 1.881794
2004-11-18 10:55:20 51°24.911 3°0.152 10.014752 3.602625 32.699239 1.814375
2004-11-18 10:55:26 51°24.912 3°0.115 10.006599 3.617482 32.849945 1.814375
2004-11-18 10:55:30 51°24.913 3°0.09 10.003459 3.613794 32.814914 1.713247
2004-11-18 10:55:39 51°24.915 3°0.033 10.002395 3.617376 32.856979 1.679537
2004-11-18 10:55:46 51°24.916 2°59.988 10.002395 3.617376 32.856979 1.679537
2004-11-18 10:55:48 51°24.917 2°59.977 10.006801 3.609368 32.781253 1.645828
2004-11-18 10:55:59 51°24.919 2°59.907 10.003611 3.605049 32.747173 1.746956
2004-11-18 10:56:04 51°24.921 2°59.876 10.001433 3.605154 32.749706 1.713247
2004-11-18 10:56:16 51°24.924 2°59.802 9.995406 3.613794 32.834043 1.679537
2004-11-18 10:56:18 51°24.925 2°59.79 9.995406 3.613794 32.834043 1.679537
2004-11-18 10:56:30 51°24.927 2°59.716 9.991252 3.601571 32.712059 1.679537
2004-11-18 10:56:36 51°24.928 2°59.678 9.991354 3.60842 32.782699 1.612118
2004-11-18 10:56:40 51°24.929 2°59.653 9.992316 3.600307 32.703691 1.612118
2004-11-18 10:56:44 51°24.93 2°59.628 9.992316 3.600307 32.703691 1.612118
2004-11-18 10:56:50 51°24.931 2°59.591 9.991759 3.60979 32.801684 1.679537
2004-11-18 10:56:54 51°24.932 2°59.566 9.992316 3.609896 32.806428 1.679537
2004-11-18 10:56:58 51°24.933 2°59.542 9.995051 3.607999 32.788735 1.645828
2004-11-18 10:57:04 51°24.934 2°59.504 9.995102 3.603995 32.749015 1.645828
2004-11-18 10:57:10 51°24.935 2°59.468 9.995811 3.610317 32.812159 1.679537
2004-11-18 10:57:14 51°24.936 2°59.444 9.995811 3.610317 32.812159 1.679537
2004-11-18 10:57:19 51°24.938 2°59.413 9.996571 3.609896 32.807164 1.679537
2004-11-18 10:57:22 51°24.938 2°59.395 9.999559 3.610422 32.812487 1.679537
2004-11-18 10:57:30 51°24.94 2°59.346 9.99961 3.607051 32.775477 1.780665
2004-11-18 10:57:35 51°24.94 2°59.315 9.999458 3.603047 32.735763 1.713247
2004-11-18 10:57:40 51°24.941 2°59.284 9.99809 3.600096 32.705964 1.780665
2004-11-18 10:57:44 51°24.942 2°59.259 9.99809 3.600096 32.705964 1.780665
2004-11-18 10:57:49 51°24.943 2°59.228 9.993987 3.610738 32.811266 1.746956
2004-11-18 10:57:54 51°24.944 2°59.196 9.991151 3.608736 32.790303 1.814375
2004-11-18 10:58:00 51°24.945 2°59.16 9.987453 3.609474 32.797755 1.746956
2004-11-18 10:58:04 51°24.946 2°59.135 9.98487 3.610738 32.809059 1.713247
2004-11-18 10:58:10 51°24.947 2°59.098 9.985832 3.608842 32.792839 1.679537
2004-11-18 10:58:14 51°24.948 2°59.073 9.985832 3.608842 32.792839 1.679537
2004-11-18 10:58:19 51°24.949 2°59.042 9.986946 3.607051 32.776212 1.746956
2004-11-18 10:58:24 51°24.95 2°59.011 9.989581 3.608737 32.796187 1.780665
2004-11-18 10:58:30 51°24.951 2°58.974 9.989986 3.605786 32.768582 1.645828
2004-11-18 10:58:34 51°24.953 2°58.949 9.988264 3.608104 32.794213 1.679537
2004-11-18 10:58:40 51°24.954 2°58.912 9.986693 3.608947 32.80126 1.679537
2004-11-18 10:58:45 51°24.955 2°58.881 9.986693 3.608947 32.80126 1.679537
2004-11-18 10:58:50 51°24.955 2°58.85 9.986136 3.608315 32.796343 1.612118
2004-11-18 10:58:54 51°24.957 2°58.825 9.98644 3.610422 32.815432 1.645828
2004-11-18 10:59:03 51°24.958 2°58.769 9.981678 3.607051 32.782829 1.679537
2004-11-18 10:59:09 51°24.959 2°58.733 9.981678 3.607051 32.782829 1.679537
2004-11-18 10:59:14 51°24.96 2°58.702 9.981627 3.608842 32.802403 1.645828
2004-11-18 10:59:24 51°24.962 2°58.641 9.980766 3.607261 32.787165 1.713247
2004-11-18 10:59:27 51°24.963 2°58.622 9.985275 3.61116 32.827304 1.645828
2004-11-18 10:59:44 51°24.965 2°58.516 9.983755 3.60684 32.788055 1.645828
2004-11-18 10:59:50 51°24.965 2°58.478 9.982438 3.606524 32.787068 1.713247
2004-11-18 10:59:55 51°24.962 2°58.447 9.98183 3.610633 32.828608 1.645828
2004-11-18 11:00:44 51°24.949 2°58.139 9.983856 3.608315 32.808856 1.713247
2004-11-18 11:00:49 51°24.946 2°58.107 9.983502 3.611582 32.842618 1.713247
2004-11-18 11:01:12 51°24.939 2°57.962 9.988922 3.609474 32.820574 1.780665
2004-11-18 11:01:16 51°24.939 2°57.937 9.991404 3.606524 32.788539 1.780665
2004-11-18 11:01:22 51°24.938 2°57.901 9.991404 3.611792 32.841063 1.746956
2004-11-18 11:01:27 51°24.939 2°57.87 9.991404 3.611792 32.841063 1.746956
2004-11-18 11:01:32 51°24.939 2°57.838 9.994646 3.612425 32.845981 1.746956
2004-11-18 11:01:36 51°24.941 2°57.813 9.991657 3.612635 32.847375 1.746956
2004-11-18 11:01:42 51°24.943 2°57.777 9.99105 3.612214 32.840903 1.746956
2004-11-18 11:01:47 51°24.945 2°57.746 9.991809 3.613057 32.849424 1.746956
2004-11-18 11:02:44 51°24.984 2°57.4 10.002952 3.61411 32.855653 1.949212
2004-11-18 11:02:48 51°24.985 2°57.375 10.002142 3.612635 32.840005 1.814375
2004-11-18 11:02:52 51°24.987 2°57.35 10.00199 3.6139 32.853523 1.848084
2004-11-18 11:03:09 51°24.996 2°57.244 10.003155 3.614216 32.855244 1.848084
2004-11-18 11:03:13 51°24.998 2°57.218 10.004421 3.614005 32.850903 1.848084
2004-11-18 11:03:18 51°25.001 2°57.187 10.007054 3.616218 32.872532 1.881794
2004-11-18 11:03:23 51°25.003 2°57.155 10.005079 3.616639 32.875318 1.949212
2004-11-18 11:03:29 51°25.006 2°57.117 10.006092 3.617377 32.884249 1.780665
2004-11-18 11:03:34 51°25.009 2°57.085 10.004117 3.615375 32.8618 1.780665
2004-11-18 11:03:37 51°25.011 2°57.067 10.004117 3.615375 32.8618 1.780665
2004-11-18 11:03:43 51°25.014 2°57.029 10.005788 3.617377 32.880561 1.814375
2004-11-18 11:03:49 51°25.017 2°56.991 10.009941 3.618114 32.887279 1.848084
2004-11-18 11:03:54 51°25.019 2°56.959 10.006649 3.617693 32.883018 1.814375
2004-11-18 11:03:59 51°25.022 2°56.928 10.00594 3.61685 32.875236 1.746956
2004-11-18 11:04:20 51°25.032 2°56.796 10.001433 3.616744 32.874171 1.746956
2004-11-18 11:04:26 51°25.036 2°56.759 10.000724 3.616955 32.877038 1.645828
2004-11-18 11:04:31 51°25.038 2°56.727 10.001787 3.61685 32.875973 1.679537
2004-11-18 11:04:36 51°25.041 2°56.696 10.000673 3.616112 32.869255 1.713247
2004-11-18 11:04:52 51°25.049 2°56.595 10.002952 3.615691 32.86647 1.679537
2004-11-18 11:04:58 51°25.052 2°56.557 10.00594 3.615375 32.863274 1.679537
2004-11-18 11:05:03 51°25.054 2°56.526 10.00594 3.615375 32.863274 1.679537
2004-11-18 11:05:08 51°25.057 2°56.494 10.010903 3.615164 32.861144 1.713247
2004-11-18 11:05:13 51°25.059 2°56.463 10.015562 3.614953 32.859751 1.713247
2004-11-18 11:05:18 51°25.062 2°56.431 10.010954 3.615269 32.860735 1.679537
2004-11-18 11:05:23 51°25.065 2°56.399 10.010397 3.615164 32.85967 1.713247
2004-11-18 11:05:28 51°25.068 2°56.368 10.00832 3.615796 32.863849 1.713247
2004-11-18 11:05:32 51°25.069 2°56.343 10.00832 3.615796 32.863849 1.713247
2004-11-18 11:05:36 51°25.071 2°56.318 10.012321 3.615901 32.862702 1.746956
2004-11-18 11:05:44 51°25.075 2°56.267 10.013789 3.616323 32.866225 1.746956
2004-11-18 11:05:48 51°25.077 2°56.242 10.017131 3.616639 32.867945 1.746956
2004-11-18 11:05:52 51°25.079 2°56.217 10.011409 3.61685 32.870812 1.780665
2004-11-18 11:05:58 51°25.082 2°56.179 10.011815 3.61706 32.872942 1.679537
2004-11-18 11:06:03 51°25.084 2°56.148 10.011815 3.61706 32.872942 1.679537
2004-11-18 11:06:06 51°25.086 2°56.129 10.012473 3.61706 32.87073 1.780665
2004-11-18 11:06:11 51°25.09 2°56.098 10.020625 3.617482 32.87499 1.679537
2004-11-18 11:06:30 51°25.1 2°55.976 10.025789 3.618641 32.885228 1.679537
2004-11-18 11:06:37 51°25.103 2°55.932 10.031561 3.618852 32.887358 1.578409
2004-11-18 11:06:42 51°25.105 2°55.9 10.034497 3.6198 32.895466 1.5447
2004-11-18 11:06:44 51°25.107 2°55.887 10.036218 3.622329 32.920286 1.578409
2004-11-18 11:06:56 51°25.112 2°55.811 10.038091 3.62117 32.904145 1.645828
2004-11-18 11:07:00 51°25.113 2°55.785 10.040217 3.622223 32.911841 1.578409
2004-11-18 11:07:06 51°25.117 2°55.747 10.042039 3.623277 32.919537 1.5447
2004-11-18 11:07:10 51°25.118 2°55.722 10.046797 3.623593 32.921255 1.612118
2004-11-18 11:07:14 51°25.12 2°55.696 10.048619 3.624857 32.931078 1.612118
2004-11-18 11:07:21 51°25.124 2°55.652 10.048619 3.624857 32.931078 1.612118
2004-11-18 11:07:26 51°25.126 2°55.62 10.054084 3.62549 32.935989 1.578409
2004-11-18 11:07:31 51°25.128 2°55.589 10.058082 3.626333 32.942291 1.51099
2004-11-18 11:07:36 51°25.131 2°55.558 10.063699 3.627492 32.949571 1.578409
2004-11-18 11:07:41 51°25.133 2°55.527 10.064154 3.628335 32.955872 1.51099
2004-11-18 11:07:44 51°25.134 2°55.508 10.07053 3.629283 32.961759 1.5447
2004-11-18 11:07:56 51°25.14 2°55.433 10.068506 3.63002 32.966256 1.5447
2004-11-18 11:08:02 51°25.142 2°55.396 10.06714 3.630442 32.966083 1.5447
2004-11-18 11:08:06 51°25.144 2°55.372 10.069416 3.631179 32.972055 1.51099
2004-11-18 11:08:09 51°25.146 2°55.352 10.076904 3.631495 32.972294 1.477281
2004-11-18 11:08:25 51°25.154 2°55.253 10.073312 3.63276 32.980632 1.477281
2004-11-18 11:08:30 51°25.156 2°55.222 10.078422 3.633497 32.987341 1.376153
2004-11-18 11:08:35 51°25.158 2°55.191 10.078422 3.633708 32.98873 1.443571
2004-11-18 11:08:38 51°25.16 2°55.172 10.081356 3.634446 32.992485 1.409862
2004-11-18 11:08:43 51°25.163 2°55.14 10.081356 3.634446 32.992485 1.409862
2004-11-18 11:08:50 51°25.165 2°55.098 10.084087 3.635394 33.001321 1.376153
2004-11-18 11:08:55 51°25.168 2°55.067 10.087173 3.635815 33.005577 1.376153
2004-11-18 11:09:00 51°25.171 2°55.036 10.090157 3.636448 33.011222 1.376153
2004-11-18 11:09:05 51°25.173 2°55.005 10.090714 3.636869 33.01326 1.308734
2004-11-18 11:09:10 51°25.176 2°54.975 10.089196 3.637923 33.021682 1.443571
2004-11-18 11:09:13 51°25.176 2°54.955 10.089196 3.637923 33.021682 1.443571
2004-11-18 11:09:18 51°25.179 2°54.924 10.096024 3.63845 33.022567 1.477281
2004-11-18 11:09:26 51°25.184 2°54.876 10.100727 3.639398 33.029184 1.376153
2004-11-18 11:09:34 51°25.188 2°54.824 10.098401 3.640452 33.039082 1.443571
2004-11-18 11:10:00 51°25.202 2°54.662 10.100778 3.641927 33.048059 1.612118
2004-11-18 11:10:06 51°25.204 2°54.623 10.101233 3.642137 33.047968 1.612118
2004-11-18 11:10:11 51°25.207 2°54.592 10.103913 3.64298 33.055737 1.5447
2004-11-18 11:10:14 51°25.209 2°54.573 10.102548 3.64277 33.052131 1.51099
2004-11-18 11:10:28 51°25.215 2°54.484 10.107099 3.643297 33.057449 1.477281
2004-11-18 11:10:34 51°25.218 2°54.447 10.107099 3.643297 33.057449 1.477281
2004-11-18 11:10:38 51°25.219 2°54.422 10.110184 3.643613 33.057682 1.376153
2004-11-18 11:10:42 51°25.221 2°54.396 10.111903 3.643613 33.057682 1.376153
2004-11-18 11:10:46 51°25.223 2°54.372 10.116605 3.644034 33.061196 1.342443
2004-11-18 11:10:53 51°25.227 2°54.33 10.114684 3.644666 33.066837 1.342443
2004-11-18 11:10:58 51°25.23 2°54.298 10.116352 3.645088 33.067393 1.275024
2004-11-18 11:11:02 51°25.232 2°54.272 10.116352 3.645088 33.067393 1.275024
2004-11-18 11:11:07 51°25.235 2°54.24 10.118071 3.645298 33.067302 1.275024
2004-11-18 11:11:11 51°25.237 2°54.216 10.115948 3.645298 33.066562 1.241315
2004-11-18 11:11:18 51°25.24 2°54.173 10.117262 3.645931 33.071463 1.207606
2004-11-18 11:11:22 51°25.242 2°54.148 10.126463 3.646036 33.073266 1.207606
2004-11-18 11:11:27 51°25.245 2°54.117 10.124542 3.646141 33.07285 1.173896
2004-11-18 11:11:33 51°25.248 2°54.08 10.124542 3.646141 33.07285 1.173896
2004-11-18 11:11:38 51°25.251 2°54.051 10.123228 3.646458 33.07604 1.140187
2004-11-18 11:11:43 51°25.253 2°54.019 10.125452 3.646563 33.075624 1.173896
2004-11-18 11:11:48 51°25.256 2°53.988 10.129648 3.646774 33.073314 1.173896
2004-11-18 11:11:52 51°25.259 2°53.963 10.125351 3.646668 33.070033 1.140187
2004-11-18 11:11:58 51°25.261 2°53.926 10.129749 3.64709 33.075024 1.106477
2004-11-18 11:12:02 51°25.264 2°53.901 10.129749 3.64709 33.075024 1.106477
2004-11-18 11:12:06 51°25.266 2°53.876 10.129395 3.647511 33.078537 1.173896
2004-11-18 11:12:13 51°25.27 2°53.832 10.132883 3.6473 33.075672 1.173896
2004-11-18 11:12:18 51°25.272 2°53.801 10.132681 3.647827 33.079508 1.106477
2004-11-18 11:12:20 51°25.273 2°53.788 10.131872 3.647511 33.076319 1.140187
2004-11-18 11:12:30 51°25.278 2°53.724 10.136017 3.647827 33.07729 1.106477
2004-11-18 11:12:36 51°25.281 2°53.687 10.135158 3.647933 33.077614 1.106477
2004-11-18 11:12:42 51°25.283 2°53.649 10.138241 3.648038 33.077938 1.140187
2004-11-18 11:12:46 51°25.284 2°53.624 10.143851 3.647616 33.072208 1.106477
2004-11-18 11:12:52 51°25.287 2°53.588 10.149916 3.647722 33.071793 1.106477
2004-11-18 11:12:57 51°25.29 2°53.556 10.149916 3.647722 33.071793 1.106477
2004-11-18 11:13:02 51°25.293 2°53.526 10.156838 3.647933 33.073919 1.106477
2004-11-18 11:13:06 51°25.295 2°53.501 10.16563 3.648038 33.072764 1.140187
2004-11-18 11:13:10 51°25.298 2°53.477 10.174319 3.648565 33.0766 1.106477
2004-11-18 11:13:17 51°25.301 2°53.433 10.179573 3.648986 33.0742 1.140187
2004-11-18 11:13:22 51°25.304 2°53.402 10.18528 3.649513 33.07508 1.140187
2004-11-18 11:13:27 51°25.306 2°53.371 10.18528 3.649513 33.07508 1.140187
2004-11-18 11:13:30 51°25.308 2°53.353 10.190482 3.650777 33.081917 1.140187
2004-11-18 11:13:35 51°25.31 2°53.321 10.196038 3.652463 33.093002 1.106477
2004-11-18 11:13:42 51°25.314 2°53.279 10.199825 3.653095 33.092725 1.072768
2004-11-18 11:13:46 51°25.315 2°53.253 10.201138 3.65436 33.099558 1.106477
2004-11-18 11:13:52 51°25.318 2°53.216 10.202956 3.655413 33.104266 1.039059
2004-11-18 11:13:58 51°25.322 2°53.18 10.202956 3.655413 33.104266 1.039059
2004-11-18 11:14:02 51°25.323 2°53.154 10.207147 3.655835 33.104082 1.072768
2004-11-18 11:14:07 51°25.327 2°53.123 10.206288 3.656889 33.109527 1.072768
2004-11-18 11:14:10 51°25.328 2°53.105 10.209823 3.656994 33.109111 1.039059
2004-11-18 11:14:18 51°25.332 2°53.055 10.215629 3.657205 33.10828 1.072768
2004-11-18 11:14:22 51°25.334 2°53.03 10.224816 3.657942 33.114232 1.072768
2004-11-18 11:14:24 51°25.335 2°53.017 10.224816 3.657942 33.114232 1.072768
2004-11-18 11:14:31 51°25.338 2°52.973 10.231126 3.658364 33.114785 1.039059
2004-11-18 11:14:37 51°25.341 2°52.935 10.248335 3.658574 33.116169 1.039059
2004-11-18 11:14:42 51°25.342 2°52.904 10.267205 3.658996 33.116722 1.039059
2004-11-18 11:14:46 51°25.344 2°52.879 10.272552 3.659628 33.118658 1.072768
2004-11-18 11:15:04 51°25.353 2°52.766 10.293684 3.665002 33.144698 1.039059
2004-11-18 11:15:23 51°25.362 2°52.645 10.302407 3.671113 33.175174 1.072768
2004-11-18 11:15:30 51°25.365 2°52.6 10.310222 3.672378 33.182721 1.140187
2004-11-18 11:15:34 51°25.367 2°52.575 10.314154 3.673221 33.188244 1.039059
2004-11-18 11:15:39 51°25.37 2°52.544 10.314154 3.673221 33.188244 1.039059
2004-11-18 11:15:44 51°25.372 2°52.513 10.308306 3.674485 33.196527 1.072768
2004-11-18 11:15:56 51°25.378 2°52.438 10.306945 3.675433 33.200155 1.072768
2004-11-18 11:15:58 51°25.379 2°52.426 10.306793 3.675855 33.200701 1.072768
2004-11-18 11:16:06 51°25.382 2°52.375 10.299835 3.676487 33.204841 1.173896
2004-11-18 11:16:11 51°25.385 2°52.344 10.296709 3.676698 33.206959 1.140187
2004-11-18 11:16:14 51°25.386 2°52.325 10.294238 3.676698 33.206959 1.173896
2004-11-18 11:16:21 51°25.39 2°52.281 10.294238 3.676698 33.206959 1.173896
2004-11-18 11:16:25 51°25.392 2°52.257 10.295348 3.676487 33.206317 1.106477
2004-11-18 11:16:30 51°25.395 2°52.227 10.295499 3.676065 33.203557 1.072768
2004-11-18 11:16:35 51°25.396 2°52.197 10.294843 3.676066 33.20651 1.140187
2004-11-18 11:16:52 51°25.403 2°52.092 10.290255 3.675539 33.205643 1.106477
2004-11-18 11:16:58 51°25.406 2°52.054 10.297264 3.675328 33.20574 1.106477
2004-11-18 11:17:03 51°25.41 2°52.023 10.297264 3.675328 33.20574 1.106477
2004-11-18 11:17:08 51°25.412 2°51.992 10.293381 3.675328 33.205002 1.072768
2004-11-18 11:17:13 51°25.415 2°51.961 10.287431 3.675328 33.206478 1.106477
2004-11-18 11:17:18 51°25.417 2°51.929 10.293432 3.675328 33.207955 1.106477
2004-11-18 11:17:22 51°25.42 2°51.904 10.285665 3.674801 33.200443 1.072768
2004-11-18 11:17:28 51°25.422 2°51.866 10.287229 3.674696 33.199384 1.106477
2004-11-18 11:17:32 51°25.424 2°51.841 10.287229 3.674696 33.199384 1.106477
2004-11-18 11:17:38 51°25.428 2°51.804 10.283144 3.674801 33.20192 1.140187
2004-11-18 11:17:43 51°25.43 2°51.771 10.2839 3.674906 33.203718 1.140187
2004-11-18 11:17:48 51°25.433 2°51.74 10.284455 3.674907 33.205933 1.140187
2004-11-18 11:17:52 51°25.434 2°51.714 10.28158 3.674696 33.203814 1.140187
2004-11-18 11:17:58 51°25.438 2°51.676 10.279916 3.67459 33.204232 1.106477
2004-11-18 11:18:03 51°25.44 2°51.644 10.279916 3.67459 33.204232 1.106477
2004-11-18 11:18:07 51°25.442 2°51.618 10.27578 3.67459 33.206447 1.140187
2004-11-18 11:18:10 51°25.443 2°51.599 10.278958 3.674274 33.20253 1.140187
2004-11-18 11:18:17 51°25.448 2°51.555 10.276284 3.674696 33.207507 1.140187
2004-11-18 11:18:23 51°25.452 2°51.517 10.274166 3.674169 33.203686 1.140187
2004-11-18 11:18:26 51°25.455 2°51.499 10.273258 3.674169 33.205164 1.173896
2004-11-18 11:18:32 51°25.461 2°51.462 10.273258 3.674169 33.205164 1.173896
2004-11-18 11:18:38 51°25.467 2°51.425 10.27467 3.674274 33.207701 1.173896
2004-11-18 11:18:42 51°25.47 2°51.4 10.274166 3.674064 33.20632 1.140187
2004-11-18 11:18:47 51°25.475 2°51.369 10.277192 3.674274 33.209178 1.106477
2004-11-18 11:18:54 51°25.481 2°51.327 10.275124 3.674169 33.208857 1.140187
2004-11-18 11:18:58 51°25.484 2°51.303 10.277091 3.674169 33.209596 1.106477
2004-11-18 11:19:03 51°25.488 2°51.272 10.277091 3.674169 33.209596 1.106477
2004-11-18 11:19:08 51°25.493 2°51.242 10.281177 3.670586 33.175042 1.072768
2004-11-18 11:19:13 51°25.497 2°51.212 10.283194 3.674274 33.212134 1.039059
2004-11-18 11:19:18 51°25.502 2°51.181 10.283699 3.674591 33.215314 1.072768
2004-11-18 11:19:22 51°25.506 2°51.158 10.292826 3.674801 33.216694 1.106477
2004-11-18 11:19:28 51°25.511 2°51.121 10.297617 3.674907 33.216276 1.072768
2004-11-18 11:19:33 51°25.516 2°51.091 10.297617 3.674907 33.216276 1.072768
2004-11-18 11:19:38 51°25.52 2°51.06 10.304978 3.675328 33.218298 1.072768
2004-11-18 11:19:42 51°25.523 2°51.035 10.30765 3.676593 33.22732 1.072768
2004-11-18 11:19:47 51°25.528 2°51.004 10.316069 3.677752 33.236759 1.106477
2004-11-18 11:19:53 51°25.534 2°50.968 10.321665 3.679016 33.244299 1.072768
2004-11-18 11:19:55 51°25.535 2°50.955 10.32736 3.680597 33.254277 0.97164
2004-11-18 11:20:02 51°25.543 2°50.913 10.32736 3.680597 33.254277 0.97164
2004-11-18 11:20:08 51°25.548 2°50.875 10.332098 3.682177 33.267211 1.005349
2004-11-18 11:20:12 51°25.551 2°50.85 10.334668 3.683442 33.274006 1.039059
2004-11-18 11:20:18 51°25.557 2°50.813 10.341521 3.684706 33.28154 0.93793
2004-11-18 11:20:22 51°25.56 2°50.788 10.345502 3.685655 33.285155 1.005349
2004-11-18 11:20:26 51°25.565 2°50.763 10.348727 3.686603 33.290249 0.97164
2004-11-18 11:20:32 51°25.57 2°50.726 10.348727 3.686603 33.290249 0.97164
2004-11-18 11:20:38 51°25.576 2°50.688 10.351599 3.687762 33.297459 0.93793
2004-11-18 11:20:44 51°25.581 2°50.65 10.357997 3.688078 33.294719 0.93793
2004-11-18 11:20:48 51°25.585 2°50.625 10.358047 3.688921 33.299491 0.93793
2004-11-18 11:20:52 51°25.589 2°50.601 10.359307 3.689448 33.301826 0.904221
2004-11-18 11:20:58 51°25.594 2°50.563 10.364344 3.690186 33.307757 0.904221
2004-11-18 11:21:04 51°25.599 2°50.526 10.364344 3.690186 33.307757 0.904221
2004-11-18 11:21:08 51°25.604 2°50.501 10.367065 3.690923 33.311468 0.93793
2004-11-18 11:21:13 51°25.608 2°50.471 10.368173 3.691239 33.311686 0.93793
2004-11-18 11:21:15 51°25.61 2°50.458 10.370288 3.69145 33.310105 0.870512
2004-11-18 11:21:22 51°25.617 2°50.415 10.374922 3.691871 33.31212 0.870512
2004-11-18 11:21:28 51°25.622 2°50.379 10.377189 3.692398 33.314454 0.870512
2004-11-18 11:21:32 51°25.626 2°50.355 10.377189 3.692398 33.314454 0.870512
2004-11-18 11:21:38 51°25.632 2°50.318 10.380563 3.693031 33.317845 0.836802
2004-11-18 11:21:41 51°25.634 2°50.3 10.385246 3.693136 33.316685 0.870512
2004-11-18 11:21:46 51°25.639 2°50.27 10.393555 3.693452 33.317642 0.870512
2004-11-18 11:21:52 51°25.645 2°50.233 10.390483 3.694084 33.321772 0.870512
2004-11-18 11:21:56 51°25.649 2°50.209 10.394612 3.6944 33.321988 0.836802
2004-11-18 11:22:02 51°25.654 2°50.172 10.394612 3.6944 33.321988 0.836802
2004-11-18 11:22:12 51°25.662 2°50.11 10.391088 3.69577 33.32613 0.769383
2004-11-18 11:22:18 51°25.668 2°50.074 10.39869 3.696086 33.327825 0.769383
2004-11-18 11:22:22 51°25.672 2°50.049 10.398842 3.696402 33.330258 0.870512
2004-11-18 11:22:28 51°25.677 2°50.012 10.398842 3.696402 33.330258 0.870512
2004-11-18 11:22:32 51°25.681 2°49.987 10.406242 3.696297 33.327723 0.769383
2004-11-18 11:22:38 51°25.688 2°49.951 10.412786 3.696613 33.330895 0.803093
2004-11-18 11:22:42 51°25.691 2°49.926 10.41636 3.696718 33.330475 0.803093
2004-11-18 11:22:47 51°25.696 2°49.895 10.420488 3.697035 33.329952 0.769383
2004-11-18 11:22:50 51°25.699 2°49.876 10.425017 3.697456 33.331226 0.769383
2004-11-18 11:22:55 51°25.704 2°49.845 10.425017 3.697456 33.331226 0.769383
2004-11-18 11:23:00 51°25.709 2°49.814 10.428087 3.698088 33.333875 0.769383
2004-11-18 11:23:12 51°25.722 2°49.74 10.437196 3.699353 33.338434 0.769383
2004-11-18 11:23:17 51°25.727 2°49.71 10.4459 3.699985 33.340344 0.735674
2004-11-18 11:23:22 51°25.732 2°49.679 10.443384 3.700512 33.341935 0.735674
2004-11-18 11:23:26 51°25.737 2°49.656 10.443384 3.700512 33.341935 0.735674
2004-11-18 11:23:30 51°25.74 2°49.631 10.455006 3.701355 33.347434 0.735674
2004-11-18 11:23:35 51°25.746 2°49.602 10.453145 3.701776 33.347229 0.735674
2004-11-18 11:23:42 51°25.753 2°49.559 10.459835 3.702198 33.346286 0.735674
2004-11-18 11:23:46 51°25.758 2°49.535 10.460489 3.703673 33.356646 0.668255
2004-11-18 11:23:52 51°25.764 2°49.498 10.463407 3.703778 33.353272 0.735674
2004-11-18 11:23:58 51°25.771 2°49.462 10.463407 3.703778 33.353272 0.735674
2004-11-18 11:24:02 51°25.774 2°49.437 10.465167 3.705148 33.364788 0.735674
2004-11-18 11:24:06 51°25.778 2°49.413 10.468185 3.70578 33.366694 0.668255
2004-11-18 11:24:12 51°25.785 2°49.376 10.473667 3.706623 33.372189 0.668255
2004-11-18 11:24:18 51°25.79 2°49.34 10.47764 3.706834 33.372085 0.701965
2004-11-18 11:24:22 51°25.795 2°49.316 10.47593 3.707993 33.380747 0.668255
2004-11-18 11:24:27 51°25.8 2°49.287 10.47593 3.707993 33.380747 0.668255
2004-11-18 11:24:30 51°25.804 2°49.269 10.479953 3.708626 33.384867 0.634546
2004-11-18 11:24:37 51°25.811 2°49.227 10.484278 3.709363 33.387088 0.668255
2004-11-18 11:24:42 51°25.817 2°49.197 10.482367 3.70989 33.39089 0.701965
2004-11-18 11:24:44 51°25.819 2°49.185 10.486188 3.709995 33.38973 0.668255
2004-11-18 11:24:50 51°25.825 2°49.148 10.487999 3.710206 33.388888 0.668255
2004-11-18 11:24:56 51°25.832 2°49.111 10.487999 3.710206 33.388888 0.668255
2004-11-18 11:25:02 51°25.838 2°49.075 10.49187 3.710733 33.393427 0.634546
2004-11-18 11:25:06 51°25.841 2°49.051 10.495741 3.711365 33.397545 0.701965
2004-11-18 11:25:12 51°25.847 2°49.014 10.500266 3.712103 33.402719 0.634546
2004-11-18 11:25:17 51°25.853 2°48.983 10.501523 3.71263 33.406519 0.668255
2004-11-18 11:25:23 51°25.859 2°48.947 10.503182 3.713157 33.41032 0.634546
2004-11-18 11:25:26 51°25.862 2°48.928 10.503182 3.713157 33.41032 0.634546
2004-11-18 11:25:31 51°25.868 2°48.898 10.506449 3.714 33.415808 0.634546
2004-11-18 11:25:34 51°25.871 2°48.88 10.510269 3.714737 33.420241 0.600836
2004-11-18 11:25:52 51°25.887 2°48.783 10.522985 3.718426 33.448311 0.533418
2004-11-18 11:25:58 51°25.89 2°48.754 10.522985 3.718426 33.448311 0.533418
2004-11-18 11:26:00 51°25.891 2°48.745 10.521528 3.719374 33.45633 0.600836
2004-11-18 11:26:06 51°25.895 2°48.719 10.531427 3.720428 33.463185 0.567127
2004-11-18 11:26:10 51°25.898 2°48.702 10.541075 3.72106 33.465819 0.600836
2004-11-18 11:26:24 51°25.911 2°48.65 10.56157 3.723273 33.481321 0.600836
2004-11-18 11:26:30 51°25.919 2°48.633 10.57533 3.724011 33.483529 0.668255
2004-11-18 11:26:34 51°25.926 2°48.624 10.594661 3.725064 33.488901 0.600836
2004-11-18 11:26:40 51°25.935 2°48.614 10.640881 3.726961 33.499012 0.600836
2004-11-18 11:26:45 51°25.942 2°48.608 10.640881 3.726961 33.499012 0.600836
2004-11-18 11:26:50 51°25.951 2°48.604 10.702508 3.729596 33.51576 0.600836
2004-11-18 11:26:55 51°25.959 2°48.6 10.769888 3.731387 33.523329 0.634546
2004-11-18 11:26:58 51°25.964 2°48.599 10.815087 3.734127 33.5389 0.668255
2004-11-18 11:27:06 51°25.978 2°48.598 10.854855 3.737077 33.547699 0.735674
2004-11-18 11:27:10 51°25.984 2°48.599 10.877305 3.7434 33.574659 0.701965
2004-11-18 11:27:14 51°25.99 2°48.598 10.877305 3.7434 33.574659 0.701965
2004-11-18 11:27:19 51°25.996 2°48.599 10.906944 3.75299 33.620882 0.769383
2004-11-18 11:27:25 51°26.004 2°48.6 10.922732 3.760577 33.64706 0.735674
2004-11-18 11:27:30 51°26.009 2°48.599 10.933323 3.767532 33.674276 0.803093
2004-11-18 11:27:34 51°26.013 2°48.599 10.948855 3.773644 33.700437 0.803093
2004-11-18 11:27:40 51°26.018 2°48.6 10.959142 3.778913 33.723343 0.836802
2004-11-18 11:27:45 51°26.021 2°48.6 10.959142 3.778913 33.723343 0.836802
2004-11-18 11:27:50 51°26.024 2°48.601 10.966781 3.78218 33.738122 0.904221
2004-11-18 11:27:54 51°26.025 2°48.601 10.976216 3.785025 33.747966 0.836802
2004-11-18 11:27:58 51°26.027 2°48.602 10.983654 3.786606 33.748931 0.870512
2004-11-18 11:28:19 51°26.031 2°48.604 11.000323 3.793351 33.781997 0.904221
2004-11-18 11:28:26 51°26.03 2°48.605 11.007658 3.794931 33.791053 0.870512
2004-11-18 11:28:30 51°26.03 2°48.605 11.013695 3.795669 33.79027 0.93793
2004-11-18 11:28:34 51°26.03 2°48.605 11.013645 3.796301 33.792124 0.904221
2004-11-18 11:28:40 51°26.029 2°48.606 11.021228 3.79725 33.792696 0.93793
2004-11-18 11:28:46 51°26.029 2°48.607 11.021228 3.79725 33.792696 0.93793
2004-11-18 11:28:50 51°26.029 2°48.607 11.021228 3.798725 33.801436 0.836802
2004-11-18 11:28:55 51°26.028 2°48.608 11.026117 3.799463 33.80507 0.836802
2004-11-18 11:28:58 51°26.028 2°48.608 11.050355 3.799884 33.804832 0.769383
2004-11-18 11:29:20 51°26.025 2°48.609 11.081214 3.802203 33.814565 0.836802
2004-11-18 11:29:25 51°26.024 2°48.609 11.078921 3.803257 33.813971 0.870512
2004-11-18 11:29:30 51°26.023 2°48.609 11.076977 3.805786 33.824314 0.870512
2004-11-18 11:29:34 51°26.023 2°48.61 11.076628 3.807051 33.823601 0.870512
2004-11-18 11:29:40 51°26.022 2°48.609 11.075631 3.808631 33.831899 0.870512
2004-11-18 11:29:46 51°26.021 2°48.61 11.075631 3.808631 33.831899 0.870512
2004-11-18 11:29:50 51°26.02 2°48.61 11.079021 3.809474 33.833629 0.836802
2004-11-18 11:29:56 51°26.019 2°48.609 11.080865 3.809791 33.834553 0.904221
2004-11-18 11:30:00 51°26.018 2°48.609 11.074983 3.810107 33.837682 0.93793
2004-11-18 11:30:06 51°26.018 2°48.607 11.072939 3.810001 33.835904 0.904221
2004-11-18 11:30:10 51°26.016 2°48.608 11.074684 3.810423 33.840075 0.904221
2004-11-18 11:30:30 51°26.013 2°48.605 11.068902 3.810318 33.839768 0.97164
2004-11-18 11:30:48 51°26.009 2°48.602 11.058233 3.810212 33.840195 0.93793
2004-11-18 11:30:52 51°26.007 2°48.603 11.053596 3.810107 33.840622 0.97164
2004-11-18 11:30:58 51°26.007 2°48.601 11.051851 3.809685 33.83792 0.97164
2004-11-18 11:31:00 51°26.006 2°48.601 11.051851 3.809685 33.83792 0.97164
2004-11-18 11:31:24 51°26.001 2°48.598 11.061723 3.807156 33.82391 0.870512
2004-11-18 11:31:30 51°26 2°48.596 11.059878 3.807472 33.82998 0.836802
2004-11-18 11:31:35 51°25.998 2°48.595 11.058831 3.806945 33.824028 0.93793
2004-11-18 11:31:38 51°25.998 2°48.596 11.054693 3.807156 33.824645 0.93793
2004-11-18 11:31:54 51°25.994 2°48.593 11.053147 3.807788 33.827229 0.93793
2004-11-18 11:31:56 51°25.993 2°48.593 11.053795 3.807894 33.826067 0.904221
2004-11-18 11:32:02 51°25.992 2°48.592 11.053795 3.807894 33.826067 0.904221
2004-11-18 11:32:27 51°25.986 2°48.587 11.056588 3.807156 33.824645 0.870512
2004-11-18 11:32:34 51°25.985 2°48.587 11.056588 3.807156 33.824645 0.870512
2004-11-18 11:32:38 51°25.984 2°48.586 11.055391 3.807367 33.825261 0.836802
2004-11-18 11:32:42 51°25.983 2°48.585 11.053845 3.807472 33.826305 0.904221
2004-11-18 11:32:48 51°25.982 2°48.585 11.054892 3.807367 33.824526 0.836802
2004-11-18 11:32:51 51°25.981 2°48.585 11.057086 3.807788 33.827964 0.904221
2004-11-18 11:32:58 51°25.98 2°48.584 11.059729 3.807577 33.825878 0.836802
2004-11-18 11:33:04 51°25.979 2°48.582 11.059729 3.807577 33.825878 0.836802
2004-11-18 11:33:08 51°25.978 2°48.582 11.060127 3.807472 33.826305 0.870512
2004-11-18 11:33:11 51°25.977 2°48.582 11.062221 3.807577 33.827348 0.904221
2004-11-18 11:33:18 51°25.976 2°48.581 11.061125 3.807261 33.823483 0.93793
2004-11-18 11:33:22 51°25.975 2°48.58 11.060875 3.807577 33.823673 0.870512
2004-11-18 11:33:28 51°25.974 2°48.579 11.05908 3.807577 33.823673 0.870512
2004-11-18 11:33:34 51°25.973 2°48.579 11.05908 3.807577 33.823673 0.870512
2004-11-18 11:33:36 51°25.973 2°48.579 11.05908 3.807788 33.825024 1.005349
2004-11-18 11:33:42 51°25.972 2°48.578 11.057684 3.808315 33.82877 0.97164
2004-11-18 11:34:16 51°25.965 2°48.574 11.074734 3.808104 33.826683 0.904221
2004-11-18 11:34:20 51°25.964 2°48.573 11.074734 3.808104 33.826683 0.904221
2004-11-18 11:34:26 51°25.963 2°48.571 11.077774 3.808421 33.826873 0.97164
2004-11-18 11:34:31 51°25.962 2°48.571 11.080815 3.808526 33.827181 0.93793
2004-11-18 11:34:36 51°25.961 2°48.57 11.081363 3.808947 33.829149 0.904221
2004-11-18 11:34:41 51°25.96 2°48.569 11.081812 3.809053 33.827252 0.93793
2004-11-18 11:34:44 51°25.959 2°48.57 11.07912 3.809896 33.831921 0.904221
2004-11-18 11:34:50 51°25.958 2°48.569 11.07912 3.809896 33.831921 0.904221
2004-11-18 11:34:54 51°25.958 2°48.568 11.076379 3.810107 33.831068 0.904221
2004-11-18 11:35:01 51°25.956 2°48.569 11.073687 3.810634 33.834812 0.93793
2004-11-18 11:35:06 51°25.956 2°48.568 11.069201 3.811055 33.838248 0.904221
2004-11-18 11:35:10 51°25.956 2°48.567 11.067406 3.810528 33.834504 0.97164
2004-11-18 11:35:16 51°25.955 2°48.567 11.066309 3.810739 33.83512 0.870512
2004-11-18 11:35:20 51°25.956 2°48.567 11.066309 3.810739 33.83512 0.870512
2004-11-18 11:35:24 51°25.956 2°48.567 11.063368 3.810212 33.83358 0.904221
2004-11-18 11:35:30 51°25.957 2°48.567 11.06282 3.809791 33.832348 0.93793
2004-11-18 11:36:02 51°25.969 2°48.558 11.067606 3.808421 33.827608 0.93793
2004-11-18 11:36:04 51°25.97 2°48.556 11.064066 3.808947 33.832823 0.904221
2004-11-18 11:36:16 51°25.976 2°48.545 11.064465 3.808631 33.834105 0.93793
2004-11-18 11:36:20 51°25.977 2°48.539 11.064465 3.808631 33.834105 0.93793
2004-11-18 11:36:26 51°25.98 2°48.531 11.066957 3.808526 33.833061 0.97164
2004-11-18 11:36:30 51°25.981 2°48.524 11.069998 3.808631 33.835575 0.97164
2004-11-18 11:36:36 51°25.982 2°48.513 11.070995 3.808421 33.833489 0.93793
2004-11-18 11:36:42 51°25.982 2°48.501 11.073587 3.808421 33.833489 0.93793
2004-11-18 11:36:44 51°25.981 2°48.496 11.073338 3.808631 33.834105 0.93793
2004-11-18 11:37:10 51°25.965 2°48.437 11.083257 3.809053 33.834602 0.904221
2004-11-18 11:37:17 51°25.957 2°48.422 11.086796 3.809369 33.837731 0.93793
2004-11-18 11:37:20 51°25.952 2°48.417 11.09462 3.809685 33.838655 0.93793
2004-11-18 11:37:26 51°25.943 2°48.404 11.09462 3.809685 33.838655 0.93793
2004-11-18 11:37:32 51°25.932 2°48.395 11.10035 3.809896 33.837066 0.93793
2004-11-18 11:37:37 51°25.923 2°48.386 11.107375 3.810423 33.840811 0.870512
2004-11-18 11:37:42 51°25.914 2°48.376 11.112158 3.811055 33.843393 0.93793
2004-11-18 11:37:46 51°25.906 2°48.368 11.115745 3.811688 33.84377 0.904221
2004-11-18 11:37:52 51°25.892 2°48.356 11.120577 3.812636 33.847275 0.97164
2004-11-18 11:37:55 51°25.885 2°48.349 11.120577 3.812636 33.847275 0.97164
2004-11-18 11:38:02 51°25.867 2°48.332 11.124462 3.813585 33.851514 0.870512
2004-11-18 11:38:08 51°25.852 2°48.315 11.125906 3.814111 33.851583 0.93793
2004-11-18 11:38:09 51°25.849 2°48.312 11.127152 3.815165 33.856863 0.904221
2004-11-18 11:38:23 51°25.811 2°48.275 11.129144 3.816219 33.859938 0.97164
2004-11-18 11:38:28 51°25.798 2°48.256 11.125109 3.816641 33.861902 1.072768
2004-11-18 11:38:32 51°25.786 2°48.243 11.123864 3.817062 33.863132 0.97164
2004-11-18 11:38:39 51°25.767 2°48.217 11.123864 3.817062 33.863132 0.97164
2004-11-18 11:38:44 51°25.752 2°48.199 11.119481 3.812846 33.818525 0.93793
2004-11-18 11:38:49 51°25.738 2°48.177 11.115247 3.817168 33.861236 0.836802
2004-11-18 11:38:54 51°25.723 2°48.158 11.115795 3.817905 33.869264 1.005349
2004-11-18 11:38:58 51°25.711 2°48.141 11.112008 3.81643 33.855412 1.005349
2004-11-18 11:39:03 51°25.697 2°48.119 11.110514 3.816641 33.859699 0.93793
2004-11-18 11:39:10 51°25.676 2°48.087 11.110514 3.816641 33.859699 0.93793
2004-11-18 11:39:14 51°25.664 2°48.07 11.107624 3.815903 33.855343 1.005349
2004-11-18 11:39:18 51°25.65 2°48.054 11.110813 3.815587 33.855155 0.97164
2004-11-18 11:39:22 51°25.64 2°48.034 11.108421 3.814954 33.848902 0.93793
2004-11-18 11:39:29 51°25.618 2°48.004 11.11171 3.814744 33.847553 0.93793
2004-11-18 11:39:53 51°25.545 2°47.897 11.125309 3.814533 33.85061 0.836802
2004-11-18 11:39:58 51°25.529 2°47.876 11.121722 3.814744 33.85049 0.97164
2004-11-18 11:40:02 51°25.517 2°47.858 11.121722 3.814744 33.85049 0.97164
2004-11-18 11:40:07 51°25.502 2°47.835 11.11714 3.815798 33.857973 0.97164
2004-11-18 11:40:13 51°25.482 2°47.81 11.103489 3.816114 33.856692 0.97164
2004-11-18 11:40:15 51°25.477 2°47.8 11.097908 3.816219 33.856266 0.93793
2004-11-18 11:40:48 51°25.374 2°47.657 11.049457 3.812741 33.840236 1.039059
2004-11-18 11:40:54 51°25.357 2°47.63 11.038436 3.811582 33.836115 0.93793
2004-11-18 11:40:57 51°25.347 2°47.618 11.028311 3.810844 33.830286 1.005349
2004-11-18 11:41:03 51°25.33 2°47.588 11.028311 3.810844 33.830286 1.005349
2004-11-18 11:41:07 51°25.316 2°47.573 11.030656 3.80958 33.828058 0.904221
2004-11-18 11:41:12 51°25.302 2°47.546 11.008756 3.808315 33.82583 0.870512
2004-11-18 11:41:18 51°25.283 2°47.521 11.002369 3.806313 33.819238 1.039059
2004-11-18 11:41:22 51°25.272 2°47.503 10.977614 3.804627 33.813569 0.904221
2004-11-18 11:41:28 51°25.252 2°47.477 10.953949 3.802835 33.803177 0.870512
2004-11-18 11:41:32 51°25.24 2°47.457 10.953949 3.802835 33.803177 0.870512
2004-11-18 11:41:46 51°25.199 2°47.393 10.874256 3.797987 33.784559 0.904221
2004-11-18 11:41:54 51°25.173 2°47.359 10.776447 3.795774 33.779539 0.836802
2004-11-18 11:42:03 51°25.144 2°47.321 10.689876 3.786817 33.748077 0.803093
2004-11-18 11:42:08 51°25.131 2°47.296 10.689876 3.786817 33.748077 0.803093
2004-11-18 11:42:14 51°25.112 2°47.272 10.674183 3.780704 33.720514 0.769383
2004-11-18 11:42:18 51°25.099 2°47.254 10.655929 3.77396 33.687365 0.870512
2004-11-18 11:42:35 51°25.047 2°47.178 10.62066 3.755835 33.614557 0.735674
2004-11-18 11:42:40 51°25.032 2°47.158 10.600534 3.749828 33.583439 0.735674
2004-11-18 11:42:45 51°25.016 2°47.135 10.590143 3.746456 33.568245 0.735674
2004-11-18 11:42:51 51°24.998 2°47.109 10.590143 3.746456 33.568245 0.735674
2004-11-18 11:42:54 51°24.988 2°47.096 10.582913 3.741819 33.538942 0.701965
2004-11-18 11:43:01 51°24.967 2°47.065 10.583264 3.739922 33.5355 0.701965
2004-11-18 11:43:06 51°24.95 2°47.043 10.586076 3.737815 33.524047 0.668255
2004-11-18 11:43:10 51°24.939 2°47.023 10.595313 3.734759 33.510496 0.668255
2004-11-18 11:43:15 51°24.922 2°47.004 10.588385 3.73244 33.496189 0.634546
2004-11-18 11:43:20 51°24.908 2°46.98 10.588385 3.73244 33.496189 0.634546
2004-11-18 11:43:23 51°24.898 2°46.967 10.573121 3.731176 33.48798 0.668255
2004-11-18 11:44:12 51°24.745 2°46.749 10.569003 3.726645 33.456709 0.600836
2004-11-18 11:44:17 51°24.731 2°46.724 10.578946 3.726118 33.453655 0.600836
2004-11-18 11:44:22 51°24.715 2°46.703 10.568802 3.72538 33.449232 0.634546
2004-11-18 11:44:27 51°24.701 2°46.679 10.568802 3.72538 33.449232 0.634546
2004-11-18 11:44:30 51°24.691 2°46.666 10.575632 3.724853 33.444702 0.634546
2004-11-18 11:45:28 51°24.509 2°46.413 10.585574 3.724326 33.435749 0.634546
2004-11-18 11:45:34 51°24.492 2°46.382 10.585574 3.724326 33.435749 0.634546